Observation data for Palo Duro Reservoir 1NW on 01/19/2019      Previous  Date  Next       Current Mesonet Observations  Soil Data  Daily Summary Page  Observations in Plain Language
KPD4 190600Z 35023KT M02/M04 A3006 RMK A01 T10161039  RH  085%=      5-min Rain = 0
KPD4 190601Z 35025G30KT M02/M04 A3006 RMK A01 T10171039  RH  085%=      5-min Rain = 0
KPD4 190602Z 35023KT M02/M04 A3006 RMK A01 T10171039  RH  085%=      5-min Rain = 0
KPD4 190603Z 35021KT M02/M04 A3007 RMK A01 T10171039  RH  085%=      5-min Rain = 0
KPD4 190604Z 35023KT M02/M04 A3007 RMK A01 T10171039  RH  085%=      5-min Rain = 0
KPD4 190605Z 35021G27KT M02/M04 A3007 RMK A01 T10181040  RH  085%=      5-min Rain = 0
KPD4 190606Z 35024KT M02/M04 A3007 RMK A01 T10191041  RH  085%=      5-min Rain = 0
KPD4 190607Z 35023G28KT M02/M04 A3007 RMK A01 T10191041  RH  085%=      5-min Rain = 0
KPD4 190608Z 35023KT M02/M04 A3007 RMK A01 T10201042  RH  085%=      5-min Rain = 0
KPD4 190609Z 35022G29KT M02/M04 A3007 RMK A01 T10201042  RH  085%=      5-min Rain = 0
KPD4 190610Z 35024G29KT M02/M04 A3007 RMK A01 T10201042  RH  085%=      5-min Rain = 0
KPD4 190611Z 35024KT M02/M04 A3007 RMK A01 T10201042  RH  085%=      5-min Rain = 0
KPD4 190612Z 35022KT M02/M04 A3007 RMK A01 T10201043  RH  085%=      5-min Rain = 0
KPD4 190613Z 35021KT M02/M04 A3007 RMK A01 T10211043  RH  085%=      5-min Rain = 0
KPD4 190614Z 35021G27KT M02/M04 A3008 RMK A01 T10211043  RH  085%=      5-min Rain = 0
KPD4 190615Z 35023KT M02/M04 A3008 RMK A01 T10211043  RH  085%=      5-min Rain = 0
KPD4 190616Z 35023KT M02/M04 A3008 RMK A01 T10211043  RH  085%=      5-min Rain = 0
KPD4 190617Z 35023KT M02/M04 A3008 RMK A01 T10211043  RH  085%=      5-min Rain = 0
KPD4 190618Z 35025KT M02/M04 A3007 RMK A01 T10221043  RH  085%=      5-min Rain = 0
KPD4 190619Z 35024KT M02/M04 A3008 RMK A01 T10211043  RH  085%=      5-min Rain = 0
KPD4 190620Z 35021KT M02/M04 A3008 RMK A01 T10211043  RH  085%=      5-min Rain = 0
KPD4 190621Z 35023KT M02/M04 A3008 RMK A01 T10211043  RH  085%=      5-min Rain = 0
KPD4 190622Z 35023KT M02/M04 A3008 RMK A01 T10211043  RH  085%=      5-min Rain = 0
KPD4 190623Z 35021KT M02/M04 A3008 RMK A01 T10211043  RH  085%=      5-min Rain = 0
KPD4 190624Z 35023KT M02/M04 A3008 RMK A01 T10211043  RH  085%=      5-min Rain = 0
KPD4 190625Z 35020G25KT M02/M04 A3008 RMK A01 T10211043  RH  085%=      5-min Rain = 0
KPD4 190626Z 35022KT M02/M04 A3008 RMK A01 T10211042  RH  085%=      5-min Rain = 0
KPD4 190627Z 36021KT M02/M04 A3008 RMK A01 T10211042  RH  085%=      5-min Rain = 0
KPD4 190628Z 35022KT M02/M04 A3008 RMK A01 T10211042  RH  085%=      5-min Rain = 0
KPD4 190629Z 35020KT M02/M04 A3008 RMK A01 T10211042  RH  086%=      5-min Rain = 0
KPD4 190630Z 35021KT M02/M04 A3008 RMK A01 T10211042  RH  086%=      5-min Rain = 0
KPD4 190631Z 35023KT M02/M04 A3008 RMK A01 T10211042  RH  086%=      5-min Rain = 0
KPD4 190632Z 36024G29KT M02/M04 A3008 RMK A01 T10211042  RH  085%=      5-min Rain = 0
KPD4 190633Z 36020KT M02/M04 A3009 RMK A01 T10211043  RH  085%=      5-min Rain = 0
KPD4 190634Z 36022KT M02/M04 A3009 RMK A01 T10211043  RH  085%=      5-min Rain = 0
KPD4 190635Z 00021KT M02/M04 A3009 RMK A01 T10211043  RH  085%=      5-min Rain = 0
KPD4 190636Z 36021KT M02/M04 A3009 RMK A01 T10221044  RH  085%=      5-min Rain = 0
KPD4 190637Z 36017G23KT M02/M04 A3009 RMK A01 T10221044  RH  085%=      5-min Rain = 0
KPD4 190638Z 35020KT M02/M04 A3009 RMK A01 T10221044  RH  085%=      5-min Rain = 0
KPD4 190639Z 35019KT M02/M04 A3009 RMK A01 T10221044  RH  085%=      5-min Rain = 0
KPD4 190640Z 36019KT M02/M04 A3009 RMK A01 T10231044  RH  085%=      5-min Rain = 0
KPD4 190641Z 35020G25KT M02/M04 A3009 RMK A01 T10231044  RH  085%=      5-min Rain = 0
KPD4 190642Z 36018G23KT M02/M04 A3009 RMK A01 T10231044  RH  085%=      5-min Rain = 0
KPD4 190643Z 35016G21KT M02/M04 A301 RMK A01 T10231043  RH  086%=      5-min Rain = 0
KPD4 190644Z 36016G21KT M02/M04 A301 RMK A01 T10231043  RH  086%=      5-min Rain = 0
KPD4 190645Z 35018KT M02/M04 A3009 RMK A01 T10231042  RH  087%=      5-min Rain = 0
KPD4 190646Z 35021G26KT M02/M04 A3009 RMK A01 T10231043  RH  086%=      5-min Rain = 0
KPD4 190647Z 35022G27KT M02/M04 A3009 RMK A01 T10231044  RH  086%=      5-min Rain = 0
KPD4 190648Z 34023KT M02/M04 A3009 RMK A01 T10221044  RH  085%=      5-min Rain = 0
KPD4 190649Z 35019KT M02/M05 A3009 RMK A01 T10221045  RH  085%=      5-min Rain = 0
KPD4 190650Z 35018G23KT M02/M04 A3009 RMK A01 T10221044  RH  085%=      5-min Rain = 0
KPD4 190651Z 35018G23KT M02/M04 A3009 RMK A01 T10221044  RH  085%=      5-min Rain = 0
KPD4 190652Z 35024KT M02/M04 A3009 RMK A01 T10221044  RH  085%=      5-min Rain = 0
KPD4 190653Z 36021KT M02/M05 A3009 RMK A01 T10231045  RH  085%=      5-min Rain = 0
KPD4 190654Z 35019KT M02/M04 A3009 RMK A01 T10221044  RH  085%=      5-min Rain = 0
KPD4 190655Z 35019KT M02/M04 A3009 RMK A01 T10221044  RH  085%=      5-min Rain = 0
KPD4 190656Z 35019G24KT M02/M04 A3009 RMK A01 T10221044  RH  085%=      5-min Rain = 0
KPD4 190657Z 35023G31KT M02/M04 A3009 RMK A01 T10221044  RH  085%=      5-min Rain = 0
KPD4 190658Z 35024KT M02/M05 A3009 RMK A01 T10221045  RH  084%=      5-min Rain = 0
KPD4 190659Z 35023KT M02/M05 A3009 RMK A01 T10221045  RH  084%=      5-min Rain = 0
KPD4 190700Z 35018KT M02/M05 A3009 RMK A01 T10221045  RH  084%=      5-min Rain = 0
KPD4 190701Z 34021G27KT M02/M05 A3009 RMK A01 T10221045  RH  085%=      5-min Rain = 0
KPD4 190702Z 35023G30KT M02/M05 A3009 RMK A01 T10221045  RH  085%=      5-min Rain = 0
KPD4 190703Z 35024G31KT M02/M05 A3009 RMK A01 T10221046  RH  084%=      5-min Rain = 0
KPD4 190704Z 34021KT M02/M05 A3009 RMK A01 T10221046  RH  084%=      5-min Rain = 0
KPD4 190705Z 35023G28KT M02/M05 A3009 RMK A01 T10221046  RH  084%=      5-min Rain = 0
KPD4 190706Z 35023G28KT M02/M05 A3009 RMK A01 T10221046  RH  084%=      5-min Rain = 0
KPD4 190707Z 35022G27KT M02/M05 A3009 RMK A01 T10221046  RH  084%=      5-min Rain = 0
KPD4 190708Z 34026KT M02/M05 A3009 RMK A01 T10231047  RH  083%=      5-min Rain = 0
KPD4 190709Z 35025KT M02/M05 A3009 RMK A01 T10231048  RH  083%=      5-min Rain = 0
KPD4 190710Z 35023G28KT M02/M05 A3009 RMK A01 T10231049  RH  082%=      5-min Rain = 0
KPD4 190711Z 35021KT M02/M05 A3009 RMK A01 T10231049  RH  083%=      5-min Rain = 0
KPD4 190712Z 35020G25KT M02/M05 A3009 RMK A01 T10241049  RH  083%=      5-min Rain = 0
KPD4 190713Z 35022KT M03/M05 A3009 RMK A01 T10251049  RH  083%=      5-min Rain = 0
KPD4 190714Z 35023G28KT M03/M05 A301 RMK A01 T10251049  RH  084%=      5-min Rain = 0
KPD4 190715Z 34021G28KT M03/M05 A301 RMK A01 T10251049  RH  084%=      5-min Rain = 0
KPD4 190716Z 34020G26KT M03/M05 A301 RMK A01 T10261049  RH  084%=      5-min Rain = 0
KPD4 190717Z 35022KT M03/M05 A3009 RMK A01 T10261050  RH  084%=      5-min Rain = 0
KPD4 190718Z 34024G30KT M03/M05 A301 RMK A01 T10261050  RH  084%=      5-min Rain = 0
KPD4 190719Z 34024KT M03/M05 A301 RMK A01 T10261051  RH  083%=      5-min Rain = 0
KPD4 190720Z 35025KT M03/M05 A301 RMK A01 T10271052  RH  083%=      5-min Rain = 0
KPD4 190721Z 34024KT M03/M05 A301 RMK A01 T10271052  RH  083%=      5-min Rain = 0
KPD4 190722Z 34026G33KT M03/M05 A301 RMK A01 T10271053  RH  082%=      5-min Rain = 0
KPD4 190723Z 35027KT M03/M05 A301 RMK A01 T10281054  RH  082%=      5-min Rain = 0
KPD4 190724Z 34023KT M03/M05 A301 RMK A01 T10281054  RH  082%=      5-min Rain = 0
KPD4 190725Z 34026KT M03/M06 A301 RMK A01 T10291055  RH  082%=      5-min Rain = 0
KPD4 190726Z 34025KT M03/M06 A301 RMK A01 T10291056  RH  082%=      5-min Rain = 0
KPD4 190727Z 34026KT M03/M06 A301 RMK A01 T10291056  RH  082%=      5-min Rain = 0
KPD4 190728Z 34023G28KT M03/M06 A301 RMK A01 T10291056  RH  082%=      5-min Rain = 0
KPD4 190729Z 34025G30KT M03/M06 A301 RMK A01 T10301057  RH  082%=      5-min Rain = 0
KPD4 190730Z 34031KT M03/M06 A301 RMK A01 T10301057  RH  082%=      5-min Rain = 0
KPD4 190731Z 35028G35KT M03/M06 A301 RMK A01 T10301058  RH  081%=      5-min Rain = 0
KPD4 190732Z 34025G30KT M03/M06 A301 RMK A01 T10301058  RH  081%=      5-min Rain = 0
KPD4 190733Z 34021G27KT M03/M06 A301 RMK A01 T10301058  RH  081%=      5-min Rain = 0
KPD4 190734Z 34025G30KT M03/M06 A301 RMK A01 T10311058  RH  081%=      5-min Rain = 0
KPD4 190735Z 34027G33KT M03/M06 A301 RMK A01 T10311058  RH  081%=      5-min Rain = 0
KPD4 190736Z 34029G36KT M03/M06 A301 RMK A01 T10311059  RH  081%=      5-min Rain = 0
KPD4 190737Z 35031G37KT M03/M06 A301 RMK A01 T10311060  RH  080%=      5-min Rain = 0
KPD4 190738Z 35033KT M03/M06 A301 RMK A01 T10301061  RH  079%=      5-min Rain = 0
KPD4 190739Z 35028G34KT M03/M06 A3011 RMK A01 T10301062  RH  079%=      5-min Rain = 0
KPD4 190740Z 35027KT M03/M06 A3011 RMK A01 T10301061  RH  079%=      5-min Rain = 0
KPD4 190741Z 34030G37KT M03/M06 A301 RMK A01 T10301061  RH  079%=      5-min Rain = 0
KPD4 190742Z 35030KT M03/M06 A301 RMK A01 T10301062  RH  079%=      5-min Rain = 0
KPD4 190743Z 35024G30KT M03/M06 A301 RMK A01 T10301061  RH  079%=      5-min Rain = 0
KPD4 190744Z 35026G34KT M03/M06 A301 RMK A01 T10301061  RH  079%=      5-min Rain = 0
KPD4 190745Z 35028KT M03/M06 A301 RMK A01 T10301061  RH  079%=      5-min Rain = 0
KPD4 190746Z 35024KT M03/M06 A301 RMK A01 T10311061  RH  079%=      5-min Rain = 0
KPD4 190747Z 35026G35KT M03/M06 A301 RMK A01 T10311061  RH  080%=      5-min Rain = 0
KPD4 190748Z 35029G35KT M03/M06 A301 RMK A01 T10311062  RH  079%=      5-min Rain = 0
KPD4 190749Z 35033KT M03/M06 A301 RMK A01 T10311063  RH  079%=      5-min Rain = 0
KPD4 190750Z 35026G31KT M03/M06 A301 RMK A01 T10311064  RH  078%=      5-min Rain = 0
KPD4 190751Z 35029G34KT M03/M06 A301 RMK A01 T10321064  RH  078%=      5-min Rain = 0
KPD4 190752Z 35025G30KT M03/M06 A301 RMK A01 T10311063  RH  078%=      5-min Rain = 0
KPD4 190753Z 35029KT M03/M06 A301 RMK A01 T10311063  RH  079%=      5-min Rain = 0
KPD4 190754Z 35031G37KT M03/M06 A301 RMK A01 T10311063  RH  079%=      5-min Rain = 0
KPD4 190755Z 35025KT M03/M06 A301 RMK A01 T10311063  RH  079%=      5-min Rain = 0
KPD4 190756Z 35024KT M03/M06 A301 RMK A01 T10321062  RH  079%=      5-min Rain = 0
KPD4 190757Z 35026G31KT M03/M06 A301 RMK A01 T10321062  RH  080%=      5-min Rain = 0
KPD4 190758Z 35026KT M03/M06 A301 RMK A01 T10321062  RH  080%=      5-min Rain = 0
KPD4 190759Z 34025KT M03/M06 A301 RMK A01 T10321062  RH  080%=      5-min Rain = 0
KPD4 190800Z 35026G33KT M03/M06 A301 RMK A01 T10331063  RH  080%=      5-min Rain = 0
KPD4 190801Z 35024G30KT M03/M06 A301 RMK A01 T10331062  RH  080%=      5-min Rain = 0
KPD4 190802Z 34026KT M03/M06 A301 RMK A01 T10331062  RH  080%=      5-min Rain = 0
KPD4 190803Z 35023KT M03/M06 A301 RMK A01 T10331063  RH  080%=      5-min Rain = 0
KPD4 190804Z 35021KT M03/M06 A301 RMK A01 T10341063  RH  081%=      5-min Rain = 0
KPD4 190805Z 35020KT M04/M06 A301 RMK A01 T10351063  RH  081%=      5-min Rain = 0
KPD4 190806Z 35024KT M04/M06 A301 RMK A01 T10361063  RH  081%=      5-min Rain = 0
KPD4 190807Z 34025KT M04/M06 A301 RMK A01 T10361063  RH  081%=      5-min Rain = 0
KPD4 190808Z 35022G27KT M04/M06 A3011 RMK A01 T10361064  RH  081%=      5-min Rain = 0
KPD4 190809Z 35023KT M04/M06 A3011 RMK A01 T10361064  RH  081%=      5-min Rain = 0
KPD4 190810Z 35026G32KT M04/M06 A3011 RMK A01 T10371064  RH  081%=      5-min Rain = 0
KPD4 190811Z 35025KT M04/M06 A3011 RMK A01 T10361064  RH  081%=      5-min Rain = 0
KPD4 190812Z 34024G29KT M04/M06 A3011 RMK A01 T10361064  RH  081%=      5-min Rain = 0
KPD4 190813Z 35025KT M04/M06 A3011 RMK A01 T10371064  RH  081%=      5-min Rain = 0
KPD4 190814Z 34026G31KT M04/M07 A3011 RMK A01 T10371065  RH  081%=      5-min Rain = 0
KPD4 190815Z 35024KT M04/M07 A3011 RMK A01 T10371065  RH  081%=      5-min Rain = 0
KPD4 190816Z 35026KT M04/M07 A3011 RMK A01 T10371065  RH  081%=      5-min Rain = 0
KPD4 190817Z 35024KT M04/M07 A3011 RMK A01 T10371065  RH  081%=      5-min Rain = 0
KPD4 190818Z 35021G27KT M04/M07 A3011 RMK A01 T10381065  RH  081%=      5-min Rain = 0
KPD4 190819Z 35024G29KT M04/M07 A3011 RMK A01 T10391066  RH  082%=      5-min Rain = 0
KPD4 190820Z 35020G25KT M04/M07 A3011 RMK A01 T10391065  RH  082%=      5-min Rain = 0
KPD4 190821Z 35022KT M04/M07 A3011 RMK A01 T10391066  RH  082%=      5-min Rain = 0
KPD4 190822Z 35025KT M04/M07 A3011 RMK A01 T10401066  RH  082%=      5-min Rain = 0
KPD4 190823Z 35021G26KT M04/M07 A3011 RMK A01 T10401066  RH  082%=      5-min Rain = 0
KPD4 190824Z 35023G31KT M04/M07 A3011 RMK A01 T10401066  RH  082%=      5-min Rain = 0
KPD4 190825Z 35024KT M04/M07 A3011 RMK A01 T10401066  RH  082%=      5-min Rain = 0
KPD4 190826Z 35025G30KT M04/M07 A3011 RMK A01 T10401066  RH  082%=      5-min Rain = 0
KPD4 190827Z 35028G34KT M04/M07 A3011 RMK A01 T10401066  RH  082%=      5-min Rain = 0
KPD4 190828Z 35025G32KT M04/M07 A3011 RMK A01 T10391067  RH  081%=      5-min Rain = 0
KPD4 190829Z 34027G32KT M04/M07 A3011 RMK A01 T10391067  RH  081%=      5-min Rain = 0
KPD4 190830Z 35027G33KT M04/M07 A3011 RMK A01 T10391067  RH  081%=      5-min Rain = 0
KPD4 190831Z 35028KT M04/M07 A3011 RMK A01 T10391067  RH  081%=      5-min Rain = 0
KPD4 190832Z 35024KT M04/M07 A3012 RMK A01 T10391067  RH  081%=      5-min Rain = 0
KPD4 190833Z 34026KT M04/M07 A3012 RMK A01 T10401067  RH  081%=      5-min Rain = 0
KPD4 190834Z 34024G31KT M04/M07 A3012 RMK A01 T10401067  RH  081%=      5-min Rain = 0
KPD4 190835Z 35026G31KT M04/M07 A3011 RMK A01 T10401068  RH  081%=      5-min Rain = 0
KPD4 190836Z 35024G29KT M04/M07 A3012 RMK A01 T10401068  RH  081%=      5-min Rain = 0
KPD4 190837Z 35024G29KT M04/M07 A3012 RMK A01 T10401068  RH  081%=      5-min Rain = 0
KPD4 190838Z 35025G31KT M04/M07 A3012 RMK A01 T10411068  RH  081%=      5-min Rain = 0
KPD4 190839Z 35026KT M04/M07 A3012 RMK A01 T10411069  RH  081%=      5-min Rain = 0
KPD4 190840Z 35023KT M04/M07 A3012 RMK A01 T10401068  RH  081%=      5-min Rain = 0
KPD4 190841Z 35024G30KT M04/M07 A3012 RMK A01 T10411068  RH  081%=      5-min Rain = 0
KPD4 190842Z 34024G29KT M04/M07 A3012 RMK A01 T10401068  RH  081%=      5-min Rain = 0
KPD4 190843Z 35024G30KT M04/M07 A3012 RMK A01 T10411068  RH  081%=      5-min Rain = 0
KPD4 190844Z 34024G29KT M04/M07 A3012 RMK A01 T10411068  RH  082%=      5-min Rain = 0
KPD4 190845Z 34024G29KT M04/M07 A3012 RMK A01 T10411068  RH  082%=      5-min Rain = 0
KPD4 190846Z 34025KT M04/M07 A3012 RMK A01 T10411068  RH  082%=      5-min Rain = 0
KPD4 190847Z 34024G31KT M04/M07 A3012 RMK A01 T10411067  RH  082%=      5-min Rain = 0
KPD4 190848Z 35025G30KT M04/M07 A3012 RMK A01 T10411067  RH  082%=      5-min Rain = 0
KPD4 190849Z 34025G30KT M04/M07 A3012 RMK A01 T10411067  RH  082%=      5-min Rain = 0
KPD4 190850Z 34024G30KT M04/M07 A3012 RMK A01 T10401067  RH  082%=      5-min Rain = 0
KPD4 190851Z 34027KT M04/M07 A3012 RMK A01 T10401067  RH  082%=      5-min Rain = 0
KPD4 190852Z 34028KT M04/M07 A3012 RMK A01 T10401067  RH  082%=      5-min Rain = 0
KPD4 190853Z 34026KT M04/M07 A3012 RMK A01 T10401067  RH  082%=      5-min Rain = 0
KPD4 190854Z 34021KT M04/M07 A3013 RMK A01 T10401067  RH  082%=      5-min Rain = 0
KPD4 190855Z 34025G30KT M04/M07 A3012 RMK A01 T10411067  RH  082%=      5-min Rain = 0
KPD4 190856Z 35024G29KT M04/M07 A3013 RMK A01 T10411067  RH  082%=      5-min Rain = 0
KPD4 190857Z 34022KT M04/M07 A3013 RMK A01 T10411067  RH  082%=      5-min Rain = 0
KPD4 190858Z 35027KT M04/M07 A3012 RMK A01 T10411067  RH  082%=      5-min Rain = 0
KPD4 190859Z 34025KT M04/M07 A3013 RMK A01 T10411068  RH  082%=      5-min Rain = 0
KPD4 190900Z 35023KT M04/M07 A3013 RMK A01 T10411068  RH  082%=      5-min Rain = 0
KPD4 190901Z 35024G29KT M04/M07 A3013 RMK A01 T10411068  RH  082%=      5-min Rain = 0
KPD4 190902Z 34025G30KT M04/M07 A3013 RMK A01 T10421068  RH  082%=      5-min Rain = 0
KPD4 190903Z 35025KT M04/M07 A3013 RMK A01 T10411068  RH  082%=      5-min Rain = 0
KPD4 190904Z 35025KT M04/M07 A3013 RMK A01 T10411068  RH  082%=      5-min Rain = 0
KPD4 190905Z 34025KT M04/M07 A3013 RMK A01 T10411068  RH  082%=      5-min Rain = 0
KPD4 190906Z 34025G30KT M04/M07 A3013 RMK A01 T10411068  RH  081%=      5-min Rain = 0
KPD4 190907Z 34021G28KT M04/M07 A3013 RMK A01 T10411068  RH  081%=      5-min Rain = 0
KPD4 190908Z 34027G36KT M04/M07 A3013 RMK A01 T10411068  RH  082%=      5-min Rain = 0
KPD4 190909Z 34027G32KT M04/M07 A3013 RMK A01 T10411068  RH  081%=      5-min Rain = 0
KPD4 190910Z 35028G33KT M04/M07 A3013 RMK A01 T10401068  RH  081%=      5-min Rain = 0
KPD4 190911Z 35025KT M04/M07 A3013 RMK A01 T10401068  RH  081%=      5-min Rain = 0
KPD4 190912Z 34023G28KT M04/M07 A3013 RMK A01 T10401068  RH  081%=      5-min Rain = 0
KPD4 190913Z 34024KT M04/M07 A3013 RMK A01 T10411068  RH  081%=      5-min Rain = 0
KPD4 190914Z 35026KT M04/M07 A3013 RMK A01 T10421068  RH  082%=      5-min Rain = 0
KPD4 190915Z 35023G29KT M04/M07 A3013 RMK A01 T10411068  RH  082%=      5-min Rain = 0
KPD4 190916Z 34024KT M04/M07 A3013 RMK A01 T10411068  RH  082%=      5-min Rain = 0
KPD4 190917Z 35023KT M04/M07 A3014 RMK A01 T10411068  RH  082%=      5-min Rain = 0
KPD4 190918Z 35023G28KT M04/M07 A3014 RMK A01 T10411067  RH  082%=      5-min Rain = 0
KPD4 190919Z 34022G28KT M04/M07 A3014 RMK A01 T10411067  RH  082%=      5-min Rain = 0
KPD4 190920Z 35023G28KT M04/M07 A3014 RMK A01 T10411067  RH  082%=      5-min Rain = 0
KPD4 190921Z 34024KT M04/M07 A3014 RMK A01 T10421068  RH  082%=      5-min Rain = 0
KPD4 190922Z 34024KT M04/M07 A3014 RMK A01 T10421068  RH  082%=      5-min Rain = 0
KPD4 190923Z 34022G27KT M04/M07 A3014 RMK A01 T10411067  RH  082%=      5-min Rain = 0
KPD4 190924Z 34022KT M04/M07 A3014 RMK A01 T10421067  RH  082%=      5-min Rain = 0
KPD4 190925Z 34022KT M04/M07 A3014 RMK A01 T10421067  RH  083%=      5-min Rain = 0
KPD4 190926Z 34020KT M04/M07 A3014 RMK A01 T10421067  RH  083%=      5-min Rain = 0
KPD4 190927Z 34020KT M04/M07 A3014 RMK A01 T10421067  RH  083%=      5-min Rain = 0
KPD4 190928Z 34019KT M04/M07 A3014 RMK A01 T10431067  RH  083%=      5-min Rain = 0
KPD4 190929Z 34020KT M04/M07 A3014 RMK A01 T10431067  RH  083%=      5-min Rain = 0
KPD4 190930Z 34021KT M04/M07 A3014 RMK A01 T10431067  RH  084%=      5-min Rain = 0
KPD4 190931Z 34019KT M04/M07 A3014 RMK A01 T10431067  RH  084%=      5-min Rain = 0
KPD4 190932Z 34019G24KT M04/M07 A3014 RMK A01 T10431067  RH  084%=      5-min Rain = 0
KPD4 190933Z 34022KT M04/M07 A3014 RMK A01 T10441067  RH  084%=      5-min Rain = 0
KPD4 190934Z 34019KT M04/M07 A3014 RMK A01 T10431067  RH  084%=      5-min Rain = 0
KPD4 190935Z 34021G26KT M04/M07 A3014 RMK A01 T10431067  RH  084%=      5-min Rain = 0
KPD4 190936Z 34022G27KT M04/M07 A3014 RMK A01 T10431067  RH  083%=      5-min Rain = 0
KPD4 190937Z 35018KT M04/M07 A3014 RMK A01 T10421067  RH  083%=      5-min Rain = 0
KPD4 190938Z 35017G22KT M04/M07 A3014 RMK A01 T10421067  RH  083%=      5-min Rain = 0
KPD4 190939Z 35026G31KT M04/M07 A3014 RMK A01 T10421066  RH  084%=      5-min Rain = 0
KPD4 190940Z 35024KT M04/M07 A3014 RMK A01 T10411065  RH  083%=      5-min Rain = 0
KPD4 190941Z 34023G29KT M04/M07 A3014 RMK A01 T10401065  RH  083%=      5-min Rain = 0
KPD4 190942Z 35025KT M04/M06 A3014 RMK A01 T10391064  RH  083%=      5-min Rain = 0
KPD4 190943Z 35025KT M04/M06 A3014 RMK A01 T10381064  RH  083%=      5-min Rain = 0
KPD4 190944Z 34023G28KT M04/M06 A3014 RMK A01 T10381064  RH  082%=      5-min Rain = 0
KPD4 190945Z 35023G29KT M04/M06 A3014 RMK A01 T10381064  RH  082%=      5-min Rain = 0
KPD4 190946Z 35024KT M04/M06 A3014 RMK A01 T10381064  RH  082%=      5-min Rain = 0
KPD4 190947Z 35025KT M04/M06 A3014 RMK A01 T10371063  RH  082%=      5-min Rain = 0
KPD4 190948Z 35023KT M04/M06 A3014 RMK A01 T10371063  RH  082%=      5-min Rain = 0
KPD4 190949Z 35023KT M04/M06 A3014 RMK A01 T10371063  RH  082%=      5-min Rain = 0
KPD4 190950Z 35022KT M04/M06 A3014 RMK A01 T10371063  RH  082%=      5-min Rain = 0
KPD4 190951Z 35021KT M04/M06 A3014 RMK A01 T10371063  RH  082%=      5-min Rain = 0
KPD4 190952Z 35020KT M04/M06 A3014 RMK A01 T10371062  RH  083%=      5-min Rain = 0
KPD4 190953Z 35018G23KT M04/M06 A3014 RMK A01 T10371062  RH  083%=      5-min Rain = 0
KPD4 190954Z 35019KT M04/M06 A3014 RMK A01 T10371062  RH  083%=      5-min Rain = 0
KPD4 190955Z 35020KT M04/M06 A3014 RMK A01 T10371061  RH  083%=      5-min Rain = 0
KPD4 190956Z 34019KT M04/M06 A3015 RMK A01 T10371061  RH  083%=      5-min Rain = 0
KPD4 190957Z 34019KT M04/M06 A3015 RMK A01 T10371061  RH  083%=      5-min Rain = 0
KPD4 190958Z 35021G26KT M04/M06 A3015 RMK A01 T10371061  RH  083%=      5-min Rain = 0
KPD4 190959Z 34020KT M04/M06 A3015 RMK A01 T10361061  RH  083%=      5-min Rain = 0
KPD4 191000Z 34020G25KT M04/M06 A3015 RMK A01 T10361061  RH  083%=      5-min Rain = 0
KPD4 191001Z 35024KT M04/M06 A3015 RMK A01 T10361060  RH  083%=      5-min Rain = 0
KPD4 191002Z 34023KT M04/M06 A3015 RMK A01 T10361060  RH  083%=      5-min Rain = 0
KPD4 191003Z 35020G25KT M04/M06 A3016 RMK A01 T10351060  RH  083%=      5-min Rain = 0
KPD4 191004Z 34022KT M04/M06 A3016 RMK A01 T10361060  RH  083%=      5-min Rain = 0
KPD4 191005Z 34023G28KT M04/M06 A3016 RMK A01 T10361060  RH  083%=      5-min Rain = 0
KPD4 191006Z 34021KT M04/M06 A3016 RMK A01 T10351060  RH  083%=      5-min Rain = 0
KPD4 191007Z 35020KT M04/M06 A3016 RMK A01 T10351059  RH  083%=      5-min Rain = 0
KPD4 191008Z 35019KT M04/M06 A3016 RMK A01 T10351059  RH  083%=      5-min Rain = 0
KPD4 191009Z 35019KT M04/M06 A3016 RMK A01 T10351059  RH  083%=      5-min Rain = 0
KPD4 191010Z 35022KT M04/M06 A3016 RMK A01 T10351059  RH  083%=      5-min Rain = 0
KPD4 191011Z 34021KT M04/M06 A3016 RMK A01 T10351059  RH  083%=      5-min Rain = 0
KPD4 191012Z 35022KT M04/M06 A3016 RMK A01 T10351060  RH  083%=      5-min Rain = 0
KPD4 191013Z 35026G31KT M03/M06 A3016 RMK A01 T10341060  RH  083%=      5-min Rain = 0
KPD4 191014Z 35021G26KT M03/M06 A3016 RMK A01 T10341060  RH  082%=      5-min Rain = 0
KPD4 191015Z 35023KT M03/M06 A3016 RMK A01 T10341060  RH  082%=      5-min Rain = 0
KPD4 191016Z 34023KT M03/M06 A3016 RMK A01 T10341060  RH  082%=      5-min Rain = 0
KPD4 191017Z 35018KT M03/M06 A3016 RMK A01 T10341059  RH  083%=      5-min Rain = 0
KPD4 191018Z 35018KT M03/M06 A3016 RMK A01 T10341059  RH  083%=      5-min Rain = 0
KPD4 191019Z 35023KT M03/M06 A3016 RMK A01 T10341059  RH  083%=      5-min Rain = 0
KPD4 191020Z 35022G27KT M03/M06 A3016 RMK A01 T10341059  RH  083%=      5-min Rain = 0
KPD4 191021Z 35026KT M03/M06 A3016 RMK A01 T10341059  RH  083%=      5-min Rain = 0
KPD4 191022Z 35022G27KT M03/M06 A3015 RMK A01 T10341059  RH  083%=      5-min Rain = 0
KPD4 191023Z 35021G26KT M03/M06 A3015 RMK A01 T10341059  RH  083%=      5-min Rain = 0
KPD4 191024Z 35018G25KT M03/M06 A3016 RMK A01 T10331059  RH  083%=      5-min Rain = 0
KPD4 191025Z 35021G26KT M03/M06 A3015 RMK A01 T10341058  RH  083%=      5-min Rain = 0
KPD4 191026Z 34021KT M03/M06 A3015 RMK A01 T10341059  RH  083%=      5-min Rain = 0
KPD4 191027Z 35022KT M03/M06 A3015 RMK A01 T10341058  RH  083%=      5-min Rain = 0
KPD4 191028Z 35022KT M03/M06 A3015 RMK A01 T10341059  RH  083%=      5-min Rain = 0
KPD4 191029Z 35022G27KT M03/M06 A3015 RMK A01 T10331058  RH  083%=      5-min Rain = 0
KPD4 191030Z 34018KT M03/M06 A3016 RMK A01 T10331058  RH  083%=      5-min Rain = 0
KPD4 191031Z 34020G26KT M03/M06 A3015 RMK A01 T10331058  RH  083%=      5-min Rain = 0
KPD4 191032Z 35021G26KT M03/M06 A3015 RMK A01 T10341058  RH  083%=      5-min Rain = 0
KPD4 191033Z 34022G28KT M03/M06 A3015 RMK A01 T10331058  RH  083%=      5-min Rain = 0
KPD4 191034Z 34020KT M03/M06 A3015 RMK A01 T10331058  RH  083%=      5-min Rain = 0
KPD4 191035Z 34019G24KT M03/M06 A3015 RMK A01 T10331058  RH  083%=      5-min Rain = 0
KPD4 191036Z 35019KT M03/M06 A3015 RMK A01 T10331057  RH  083%=      5-min Rain = 0
KPD4 191037Z 34023KT M03/M06 A3015 RMK A01 T10331057  RH  083%=      5-min Rain = 0
KPD4 191038Z 35021G27KT M03/M06 A3015 RMK A01 T10331058  RH  083%=      5-min Rain = 0
KPD4 191039Z 35025G30KT M03/M06 A3015 RMK A01 T10331057  RH  083%=      5-min Rain = 0
KPD4 191040Z 35023KT M03/M06 A3015 RMK A01 T10331058  RH  083%=      5-min Rain = 0
KPD4 191041Z 35020KT M03/M06 A3015 RMK A01 T10321057  RH  083%=      5-min Rain = 0
KPD4 191042Z 34020KT M03/M06 A3015 RMK A01 T10321056  RH  083%=      5-min Rain = 0
KPD4 191043Z 34020G26KT M03/M06 A3015 RMK A01 T10321056  RH  084%=      5-min Rain = 0
KPD4 191044Z 35022KT M03/M06 A3015 RMK A01 T10321056  RH  084%=      5-min Rain = 0
KPD4 191045Z 35020KT M03/M06 A3015 RMK A01 T10321057  RH  083%=      5-min Rain = 0
KPD4 191046Z 35021G27KT M03/M06 A3015 RMK A01 T10321057  RH  083%=      5-min Rain = 0
KPD4 191047Z 35019G24KT M03/M06 A3015 RMK A01 T10321056  RH  083%=      5-min Rain = 0
KPD4 191048Z 34018G23KT M03/M06 A3016 RMK A01 T10321056  RH  084%=      5-min Rain = 0
KPD4 191049Z 35019KT M03/M06 A3016 RMK A01 T10321056  RH  084%=      5-min Rain = 0
KPD4 191050Z 35019KT M03/M06 A3016 RMK A01 T10321056  RH  084%=      5-min Rain = 0
KPD4 191051Z 35017KT M03/M06 A3016 RMK A01 T10321055  RH  084%=      5-min Rain = 0
KPD4 191052Z 35016G21KT M03/M06 A3016 RMK A01 T10321055  RH  084%=      5-min Rain = 0
KPD4 191053Z 35019G24KT M03/M06 A3016 RMK A01 T10321055  RH  084%=      5-min Rain = 0
KPD4 191054Z 35020KT M03/M06 A3016 RMK A01 T10321055  RH  084%=      5-min Rain = 0
KPD4 191055Z 34019KT M03/M06 A3016 RMK A01 T10311055  RH  084%=      5-min Rain = 0
KPD4 191056Z 35019KT M03/M06 A3016 RMK A01 T10311055  RH  084%=      5-min Rain = 0
KPD4 191057Z 35019KT M03/M05 A3016 RMK A01 T10311054  RH  084%=      5-min Rain = 0
KPD4 191058Z 35017G22KT M03/M06 A3016 RMK A01 T10311055  RH  084%=      5-min Rain = 0
KPD4 191059Z 35018KT M03/M05 A3016 RMK A01 T10311054  RH  084%=      5-min Rain = 0
KPD4 191100Z 35020KT M03/M06 A3016 RMK A01 T10311055  RH  084%=      5-min Rain = 0
KPD4 191101Z 35021G26KT M03/M05 A3016 RMK A01 T10311054  RH  084%=      5-min Rain = 0
KPD4 191102Z 34020KT M03/M05 A3016 RMK A01 T10301054  RH  083%=      5-min Rain = 0
KPD4 191103Z 34017KT M03/M05 A3017 RMK A01 T10301054  RH  083%=      5-min Rain = 0
KPD4 191104Z 35019KT M03/M05 A3017 RMK A01 T10301054  RH  084%=      5-min Rain = 0
KPD4 191105Z 34020G25KT M03/M05 A3017 RMK A01 T10301054  RH  084%=      5-min Rain = 0
KPD4 191106Z 35021KT M03/M05 A3017 RMK A01 T10301054  RH  083%=      5-min Rain = 0
KPD4 191107Z 35018KT M03/M05 A3017 RMK A01 T10301054  RH  083%=      5-min Rain = 0
KPD4 191108Z 34017KT M03/M05 A3017 RMK A01 T10301054  RH  083%=      5-min Rain = 0
KPD4 191109Z 35020G25KT M03/M05 A3017 RMK A01 T10301054  RH  083%=      5-min Rain = 0
KPD4 191110Z 35019KT M03/M05 A3017 RMK A01 T10291054  RH  083%=      5-min Rain = 0
KPD4 191111Z 34021G26KT M03/M05 A3017 RMK A01 T10291054  RH  083%=      5-min Rain = 0
KPD4 191112Z 35020KT M03/M05 A3017 RMK A01 T10291054  RH  083%=      5-min Rain = 0
KPD4 191113Z 35020KT M03/M05 A3017 RMK A01 T10291054  RH  083%=      5-min Rain = 0
KPD4 191114Z 35022KT M03/M05 A3017 RMK A01 T10291054  RH  083%=      5-min Rain = 0
KPD4 191115Z 35017G22KT M03/M05 A3017 RMK A01 T10291054  RH  083%=      5-min Rain = 0
KPD4 191116Z 34019KT M03/M05 A3017 RMK A01 T10291054  RH  083%=      5-min Rain = 0
KPD4 191117Z 35018KT M03/M05 A3017 RMK A01 T10291054  RH  083%=      5-min Rain = 0
KPD4 191118Z 35018KT M03/M05 A3017 RMK A01 T10291054  RH  083%=      5-min Rain = 0
KPD4 191119Z 35020G25KT M03/M05 A3017 RMK A01 T10291054  RH  083%=      5-min Rain = 0
KPD4 191120Z 35022KT M03/M05 A3017 RMK A01 T10291054  RH  083%=      5-min Rain = 0
KPD4 191121Z 35021KT M03/M05 A3017 RMK A01 T10291054  RH  083%=      5-min Rain = 0
KPD4 191122Z 35019G24KT M03/M05 A3017 RMK A01 T10291054  RH  083%=      5-min Rain = 0
KPD4 191123Z 35024G29KT M03/M05 A3017 RMK A01 T10291054  RH  083%=      5-min Rain = 0
KPD4 191124Z 35022G27KT M03/M05 A3017 RMK A01 T10281054  RH  083%=      5-min Rain = 0
KPD4 191125Z 34024KT M03/M06 A3017 RMK A01 T10291055  RH  082%=      5-min Rain = 0
KPD4 191126Z 35026KT M03/M06 A3017 RMK A01 T10281055  RH  082%=      5-min Rain = 0
KPD4 191127Z 34022KT M03/M06 A3017 RMK A01 T10281055  RH  082%=      5-min Rain = 0
KPD4 191128Z 35022KT M03/M06 A3018 RMK A01 T10281055  RH  082%=      5-min Rain = 0
KPD4 191129Z 34021KT M03/M05 A3018 RMK A01 T10281054  RH  082%=      5-min Rain = 0
KPD4 191130Z 34024G30KT M03/M06 A3017 RMK A01 T10281055  RH  082%=      5-min Rain = 0
KPD4 191131Z 35022G27KT M03/M06 A3017 RMK A01 T10281055  RH  082%=      5-min Rain = 0
KPD4 191132Z 35020KT M03/M05 A3017 RMK A01 T10281054  RH  082%=      5-min Rain = 0
KPD4 191133Z 35022G27KT M03/M05 A3017 RMK A01 T10281054  RH  082%=      5-min Rain = 0
KPD4 191134Z 35018KT M03/M05 A3018 RMK A01 T10281054  RH  082%=      5-min Rain = 0
KPD4 191135Z 35018G23KT M03/M05 A3018 RMK A01 T10291054  RH  082%=      5-min Rain = 0
KPD4 191136Z 35023KT M03/M05 A3018 RMK A01 T10291054  RH  083%=      5-min Rain = 0
KPD4 191137Z 35021G26KT M03/M05 A3018 RMK A01 T10281054  RH  082%=      5-min Rain = 0
KPD4 191138Z 35021KT M03/M05 A3018 RMK A01 T10281054  RH  083%=      5-min Rain = 0
KPD4 191139Z 35018KT M03/M05 A3018 RMK A01 T10291054  RH  083%=      5-min Rain = 0
KPD4 191140Z 36020KT M03/M05 A3018 RMK A01 T10291054  RH  083%=      5-min Rain = 0
KPD4 191141Z 35023KT M03/M05 A3018 RMK A01 T10291054  RH  083%=      5-min Rain = 0
KPD4 191142Z 35022KT M03/M05 A3018 RMK A01 T10291054  RH  082%=      5-min Rain = 0
KPD4 191143Z 35020KT M03/M05 A3018 RMK A01 T10291054  RH  082%=      5-min Rain = 0
KPD4 191144Z 35020G25KT M03/M05 A3018 RMK A01 T10291054  RH  083%=      5-min Rain = 0
KPD4 191145Z 35020G25KT M03/M05 A3018 RMK A01 T10291054  RH  083%=      5-min Rain = 0
KPD4 191146Z 35022G27KT M03/M05 A3018 RMK A01 T10291054  RH  083%=      5-min Rain = 0
KPD4 191147Z 35017KT M03/M05 A3018 RMK A01 T10291054  RH  083%=      5-min Rain = 0
KPD4 191148Z 35019KT M03/M05 A3018 RMK A01 T10291054  RH  083%=      5-min Rain = 0
KPD4 191149Z 35019KT M03/M05 A3018 RMK A01 T10291054  RH  083%=      5-min Rain = 0
KPD4 191150Z 35023KT M03/M06 A3018 RMK A01 T10291055  RH  083%=      5-min Rain = 0
KPD4 191151Z 35021KT M03/M06 A3018 RMK A01 T10301055  RH  083%=      5-min Rain = 0
KPD4 191152Z 35019G25KT M03/M06 A3018 RMK A01 T10301055  RH  083%=      5-min Rain = 0
KPD4 191153Z 35021G27KT M03/M05 A3018 RMK A01 T10291054  RH  083%=      5-min Rain = 0
KPD4 191154Z 35022KT M03/M05 A3018 RMK A01 T10291054  RH  083%=      5-min Rain = 0
KPD4 191155Z 01017KT M03/M05 A3019 RMK A01 T10291054  RH  083%=      5-min Rain = 0
KPD4 191156Z 01013KT M03/M05 A3019 RMK A01 T10301054  RH  084%=      5-min Rain = 0
KPD4 191157Z 01013KT M03/M05 A3019 RMK A01 T10311054  RH  084%=      5-min Rain = 0
KPD4 191158Z 00014KT M03/M05 A3019 RMK A01 T10321054  RH  085%=      5-min Rain = 0
KPD4 191159Z 01014G21KT M03/M05 A3019 RMK A01 T10321054  RH  085%=      5-min Rain = 0
KPD4 191200Z 00017KT M03/M06 A3019 RMK A01 T10331055  RH  085%=      5-min Rain = 0
KPD4 191201Z 35015KT M03/M05 A3019 RMK A01 T10331054  RH  085%=      5-min Rain = 0
KPD4 191202Z 36017KT M03/M05 A3019 RMK A01 T10321054  RH  085%=      5-min Rain = 0
KPD4 191203Z 35018KT M03/M05 A3019 RMK A01 T10321054  RH  085%=      5-min Rain = 0
KPD4 191204Z 36014KT M03/M05 A3019 RMK A01 T10321054  RH  085%=      5-min Rain = 0
KPD4 191205Z 36019KT M03/M05 A3019 RMK A01 T10321054  RH  085%=      5-min Rain = 0
KPD4 191206Z 35016G21KT M03/M06 A3019 RMK A01 T10321055  RH  084%=      5-min Rain = 0
KPD4 191207Z 35017KT M03/M05 A3019 RMK A01 T10311054  RH  084%=      5-min Rain = 0
KPD4 191208Z 35016KT M03/M06 A3019 RMK A01 T10311055  RH  084%=      5-min Rain = 0
KPD4 191209Z 35016KT M03/M06 A3019 RMK A01 T10311055  RH  084%=      5-min Rain = 0
KPD4 191210Z 35016KT M03/M06 A3019 RMK A01 T10311055  RH  084%=      5-min Rain = 0
KPD4 191211Z 35016KT M03/M06 A3019 RMK A01 T10311055  RH  084%=      5-min Rain = 0
KPD4 191212Z 36015KT M03/M05 A3019 RMK A01 T10311054  RH  084%=      5-min Rain = 0
KPD4 191213Z 35016KT M03/M05 A3019 RMK A01 T10311054  RH  084%=      5-min Rain = 0
KPD4 191214Z 36016KT M03/M05 A3019 RMK A01 T10311054  RH  084%=      5-min Rain = 0
KPD4 191215Z 35016KT M03/M06 A3019 RMK A01 T10311055  RH  084%=      5-min Rain = 0
KPD4 191216Z 36015G21KT M03/M06 A3019 RMK A01 T10311055  RH  084%=      5-min Rain = 0
KPD4 191217Z 36016KT M03/M06 A3019 RMK A01 T10311055  RH  084%=      5-min Rain = 0
KPD4 191218Z 35018KT M03/M06 A3019 RMK A01 T10311055  RH  084%=      5-min Rain = 0
KPD4 191219Z 35020KT M03/M06 A302 RMK A01 T10311056  RH  083%=      5-min Rain = 0
KPD4 191220Z 36017KT M03/M06 A302 RMK A01 T10311056  RH  083%=      5-min Rain = 0
KPD4 191221Z 36019KT M03/M06 A302 RMK A01 T10311056  RH  083%=      5-min Rain = 0
KPD4 191222Z 36018KT M03/M06 A302 RMK A01 T10311056  RH  083%=      5-min Rain = 0
KPD4 191223Z 35019KT M03/M06 A302 RMK A01 T10311056  RH  083%=      5-min Rain = 0
KPD4 191224Z 36017KT M03/M06 A302 RMK A01 T10311056  RH  083%=      5-min Rain = 0
KPD4 191225Z 36016KT M03/M06 A302 RMK A01 T10311055  RH  083%=      5-min Rain = 0
KPD4 191226Z 36014KT M03/M06 A302 RMK A01 T10311055  RH  084%=      5-min Rain = 0
KPD4 191227Z 36013G18KT M03/M06 A302 RMK A01 T10311055  RH  084%=      5-min Rain = 0
KPD4 191228Z 36014KT M03/M05 A302 RMK A01 T10311054  RH  084%=      5-min Rain = 0
KPD4 191229Z 36016KT M03/M05 A302 RMK A01 T10311054  RH  084%=      5-min Rain = 0
KPD4 191230Z 00015KT M03/M06 A302 RMK A01 T10311055  RH  084%=      5-min Rain = 0
KPD4 191231Z 36016KT M03/M06 A302 RMK A01 T10311055  RH  084%=      5-min Rain = 0
KPD4 191232Z 35015KT M03/M06 A3021 RMK A01 T10311055  RH  083%=      5-min Rain = 0
KPD4 191233Z 36019KT M03/M06 A3021 RMK A01 T10311055  RH  083%=      5-min Rain = 0
KPD4 191234Z 35019KT M03/M06 A3021 RMK A01 T10311056  RH  083%=      5-min Rain = 0
KPD4 191235Z 35021G26KT M03/M06 A302 RMK A01 T10311056  RH  083%=      5-min Rain = 0
KPD4 191236Z 35022KT M03/M06 A302 RMK A01 T10301057  RH  082%=      5-min Rain = 0
KPD4 191237Z 36020KT M03/M06 A302 RMK A01 T10311057  RH  082%=      5-min Rain = 0
KPD4 191238Z 35023KT M03/M06 A3021 RMK A01 T10301057  RH  082%=      5-min Rain = 0
KPD4 191239Z 35025KT M03/M06 A302 RMK A01 T10311058  RH  082%=      5-min Rain = 0
KPD4 191240Z 36023G28KT M03/M06 A302 RMK A01 T10301058  RH  081%=      5-min Rain = 0
KPD4 191241Z 00021KT M03/M06 A3021 RMK A01 T10301058  RH  081%=      5-min Rain = 0
KPD4 191242Z 36019KT M03/M06 A3021 RMK A01 T10301057  RH  082%=      5-min Rain = 0
KPD4 191243Z 00019KT M03/M06 A3021 RMK A01 T10301056  RH  082%=      5-min Rain = 0
KPD4 191244Z 00016KT M03/M06 A3021 RMK A01 T10301056  RH  082%=      5-min Rain = 0
KPD4 191245Z 36020KT M03/M06 A3021 RMK A01 T10301056  RH  082%=      5-min Rain = 0
KPD4 191246Z 36022G27KT M03/M06 A3021 RMK A01 T10301057  RH  082%=      5-min Rain = 0
KPD4 191247Z 00022G27KT M03/M06 A3021 RMK A01 T10311057  RH  082%=      5-min Rain = 0
KPD4 191248Z 36023KT M03/M06 A3021 RMK A01 T10311057  RH  082%=      5-min Rain = 0
KPD4 191249Z 35020KT M03/M06 A3021 RMK A01 T10301057  RH  082%=      5-min Rain = 0
KPD4 191250Z 00017KT M03/M06 A3022 RMK A01 T10311057  RH  082%=      5-min Rain = 0
KPD4 191251Z 36020KT M03/M06 A3022 RMK A01 T10311057  RH  082%=      5-min Rain = 0
KPD4 191252Z 01021KT M03/M06 A3022 RMK A01 T10311057  RH  082%=      5-min Rain = 0
KPD4 191253Z 36019KT M03/M06 A3022 RMK A01 T10311057  RH  082%=      5-min Rain = 0
KPD4 191254Z 00019KT M03/M06 A3022 RMK A01 T10311058  RH  082%=      5-min Rain = 0
KPD4 191255Z 36017G23KT M03/M06 A3022 RMK A01 T10311057  RH  082%=      5-min Rain = 0
KPD4 191256Z 00016KT M03/M06 A3022 RMK A01 T10311057  RH  083%=      5-min Rain = 0
KPD4 191257Z 01018G26KT M03/M06 A3022 RMK A01 T10311056  RH  083%=      5-min Rain = 0
KPD4 191258Z 36023G28KT M03/M06 A3022 RMK A01 T10321057  RH  083%=      5-min Rain = 0
KPD4 191259Z 36019KT M03/M06 A3022 RMK A01 T10321058  RH  082%=      5-min Rain = 0
KPD4 191300Z 00019G25KT M03/M06 A3023 RMK A01 T10321057  RH  082%=      5-min Rain = 0
KPD4 191301Z 00019KT M03/M06 A3023 RMK A01 T10321058  RH  082%=      5-min Rain = 0
KPD4 191302Z 00018KT M03/M06 A3023 RMK A01 T10321058  RH  082%=      5-min Rain = 0
KPD4 191303Z 00015KT M03/M06 A3023 RMK A01 T10321058  RH  082%=      5-min Rain = 0
KPD4 191304Z 00018KT M03/M06 A3023 RMK A01 T10331058  RH  083%=      5-min Rain = 0
KPD4 191305Z 00017KT M03/M06 A3023 RMK A01 T10331058  RH  083%=      5-min Rain = 0
KPD4 191306Z 00013KT M03/M06 A3023 RMK A01 T10331058  RH  083%=      5-min Rain = 0
KPD4 191307Z 00015KT M03/M06 A3023 RMK A01 T10331057  RH  083%=      5-min Rain = 0
KPD4 191308Z 35018G24KT M03/M06 A3023 RMK A01 T10331058  RH  083%=      5-min Rain = 0
KPD4 191309Z 36017G23KT M03/M06 A3023 RMK A01 T10341058  RH  083%=      5-min Rain = 0
KPD4 191310Z 35019G24KT M03/M06 A3023 RMK A01 T10341058  RH  083%=      5-min Rain = 0
KPD4 191311Z 36019KT M03/M06 A3023 RMK A01 T10341059  RH  083%=      5-min Rain = 0
KPD4 191312Z 36018G23KT M03/M06 A3023 RMK A01 T10341059  RH  083%=      5-min Rain = 0
KPD4 191313Z 35020KT M03/M06 A3023 RMK A01 T10341059  RH  083%=      5-min Rain = 0
KPD4 191314Z 36019KT M03/M06 A3023 RMK A01 T10341059  RH  083%=      5-min Rain = 0
KPD4 191315Z 36019KT M03/M06 A3023 RMK A01 T10341059  RH  083%=      5-min Rain = 0
KPD4 191316Z 36019KT M03/M06 A3023 RMK A01 T10341059  RH  083%=      5-min Rain = 0
KPD4 191317Z 36019KT M03/M06 A3023 RMK A01 T10341060  RH  083%=      5-min Rain = 0
KPD4 191318Z 00017KT M03/M06 A3023 RMK A01 T10341059  RH  083%=      5-min Rain = 0
KPD4 191319Z 00017KT M03/M06 A3023 RMK A01 T10341059  RH  083%=      5-min Rain = 0
KPD4 191320Z 00017KT M03/M06 A3023 RMK A01 T10341059  RH  083%=      5-min Rain = 0
KPD4 191321Z 35019KT M04/M06 A3023 RMK A01 T10351060  RH  083%=      5-min Rain = 0
KPD4 191322Z 00019KT M04/M06 A3023 RMK A01 T10351060  RH  083%=      5-min Rain = 0
KPD4 191323Z 00018G23KT M04/M06 A3023 RMK A01 T10361060  RH  083%=      5-min Rain = 0
KPD4 191324Z 35018G23KT M04/M06 A3023 RMK A01 T10361060  RH  083%=      5-min Rain = 0
KPD4 191325Z 35018KT M04/M06 A3023 RMK A01 T10361060  RH  083%=      5-min Rain = 0
KPD4 191326Z 35016KT M04/M06 A3023 RMK A01 T10361060  RH  083%=      5-min Rain = 0
KPD4 191327Z 35016KT M04/M06 A3023 RMK A01 T10361060  RH  083%=      5-min Rain = 0
KPD4 191328Z 00017KT M04/M06 A3023 RMK A01 T10361060  RH  084%=      5-min Rain = 0
KPD4 191329Z 35014KT M04/M06 A3024 RMK A01 T10361060  RH  084%=      5-min Rain = 0
KPD4 191330Z 35015KT M04/M06 A3024 RMK A01 T10361060  RH  084%=      5-min Rain = 0
KPD4 191331Z 36017KT M04/M06 A3024 RMK A01 T10361060  RH  084%=      5-min Rain = 0
KPD4 191332Z 36015KT M04/M06 A3023 RMK A01 T10361060  RH  084%=      5-min Rain = 0
KPD4 191333Z 36015KT M04/M06 A3023 RMK A01 T10361060  RH  084%=      5-min Rain = 0
KPD4 191334Z 36020KT M04/M06 A3023 RMK A01 T10361060  RH  084%=      5-min Rain = 0
KPD4 191335Z 35017KT M04/M06 A3023 RMK A01 T10361061  RH  083%=      5-min Rain = 0
KPD4 191336Z 35022KT M04/M06 A3023 RMK A01 T10361061  RH  083%=      5-min Rain = 0
KPD4 191337Z 35020KT M04/M06 A3023 RMK A01 T10371062  RH  083%=      5-min Rain = 0
KPD4 191338Z 35021G26KT M04/M06 A3023 RMK A01 T10361062  RH  083%=      5-min Rain = 0
KPD4 191339Z 34020KT M04/M06 A3024 RMK A01 T10361062  RH  083%=      5-min Rain = 0
KPD4 191340Z 35018G23KT M04/M06 A3024 RMK A01 T10371062  RH  082%=      5-min Rain = 0
KPD4 191341Z 35016G21KT M04/M06 A3024 RMK A01 T10371063  RH  083%=      5-min Rain = 0
KPD4 191342Z 34019KT M04/M06 A3024 RMK A01 T10381063  RH  083%=      5-min Rain = 0
KPD4 191343Z 35021KT M04/M06 A3024 RMK A01 T10381063  RH  083%=      5-min Rain = 0
KPD4 191344Z 35021KT M04/M06 A3024 RMK A01 T10381064  RH  082%=      5-min Rain = 0
KPD4 191345Z 35022KT M04/M06 A3024 RMK A01 T10381064  RH  082%=      5-min Rain = 0
KPD4 191346Z 34020G26KT M04/M06 A3024 RMK A01 T10381064  RH  082%=      5-min Rain = 0
KPD4 191347Z 34018G24KT M04/M06 A3024 RMK A01 T10371064  RH  082%=      5-min Rain = 0
KPD4 191348Z 35018G23KT M04/M06 A3024 RMK A01 T10371063  RH  082%=      5-min Rain = 0
KPD4 191349Z 35021G26KT M04/M06 A3024 RMK A01 T10371063  RH  082%=      5-min Rain = 0
KPD4 191350Z 35019KT M04/M06 A3024 RMK A01 T10371063  RH  082%=      5-min Rain = 0
KPD4 191351Z 35018KT M04/M06 A3025 RMK A01 T10371063  RH  082%=      5-min Rain = 0
KPD4 191352Z 35017KT M04/M06 A3025 RMK A01 T10371063  RH  083%=      5-min Rain = 0
KPD4 191353Z 35012KT M04/M06 A3025 RMK A01 T10371062  RH  083%=      5-min Rain = 0
KPD4 191354Z 35016KT M04/M06 A3025 RMK A01 T10371062  RH  083%=      5-min Rain = 0
KPD4 191355Z 34018KT M04/M06 A3025 RMK A01 T10371062  RH  083%=      5-min Rain = 0
KPD4 191356Z 34019G24KT M04/M06 A3025 RMK A01 T10371062  RH  083%=      5-min Rain = 0
KPD4 191357Z 35019KT M04/M06 A3025 RMK A01 T10371062  RH  083%=      5-min Rain = 0
KPD4 191358Z 35019KT M04/M06 A3025 RMK A01 T10371062  RH  083%=      5-min Rain = 0
KPD4 191359Z 34016KT M04/M06 A3025 RMK A01 T10371062  RH  083%=      5-min Rain = 0
KPD4 191400Z 35014KT M04/M06 A3025 RMK A01 T10371062  RH  083%=      5-min Rain = 0
KPD4 191401Z 34015KT M04/M06 A3025 RMK A01 T10371061  RH  083%=      5-min Rain = 0
KPD4 191402Z 34017G22KT M04/M06 A3025 RMK A01 T10371061  RH  083%=      5-min Rain = 0
KPD4 191403Z 35013G18KT M04/M06 A3025 RMK A01 T10371061  RH  084%=      5-min Rain = 0
KPD4 191404Z 34016KT M04/M06 A3025 RMK A01 T10371060  RH  084%=      5-min Rain = 0
KPD4 191405Z 34019KT M04/M06 A3025 RMK A01 T10371060  RH  084%=      5-min Rain = 0
KPD4 191406Z 34017KT M04/M06 A3025 RMK A01 T10371061  RH  083%=      5-min Rain = 0
KPD4 191407Z 34016KT M04/M06 A3025 RMK A01 T10361060  RH  083%=      5-min Rain = 0
KPD4 191408Z 34020KT M04/M06 A3025 RMK A01 T10361060  RH  083%=      5-min Rain = 0
KPD4 191409Z 34019KT M04/M06 A3025 RMK A01 T10361061  RH  083%=      5-min Rain = 0
KPD4 191410Z 35018KT M04/M06 A3025 RMK A01 T10351061  RH  083%=      5-min Rain = 0
KPD4 191411Z 35019KT M04/M06 A3025 RMK A01 T10361061  RH  083%=      5-min Rain = 0
KPD4 191412Z 35019KT M04/M06 A3025 RMK A01 T10351061  RH  083%=      5-min Rain = 0
KPD4 191413Z 34016G21KT M04/M06 A3025 RMK A01 T10351061  RH  083%=      5-min Rain = 0
KPD4 191414Z 35018KT M04/M06 A3025 RMK A01 T10361060  RH  083%=      5-min Rain = 0
KPD4 191415Z 35019KT M04/M06 A3025 RMK A01 T10361060  RH  083%=      5-min Rain = 0
KPD4 191416Z 35016G21KT M04/M06 A3025 RMK A01 T10361060  RH  083%=      5-min Rain = 0
KPD4 191417Z 35017KT M04/M06 A3025 RMK A01 T10351060  RH  083%=      5-min Rain = 0
KPD4 191418Z 35015KT M04/M06 A3025 RMK A01 T10351060  RH  083%=      5-min Rain = 0
KPD4 191419Z 34016KT M04/M06 A3025 RMK A01 T10351060  RH  083%=      5-min Rain = 0
KPD4 191420Z 35017KT M04/M06 A3025 RMK A01 T10351059  RH  083%=      5-min Rain = 0
KPD4 191421Z 34019KT M04/M06 A3025 RMK A01 T10351059  RH  084%=      5-min Rain = 0
KPD4 191422Z 35021KT M04/M06 A3025 RMK A01 T10351060  RH  083%=      5-min Rain = 0
KPD4 191423Z 34018KT M04/M06 A3025 RMK A01 T10361061  RH  083%=      5-min Rain = 0
KPD4 191424Z 34015KT M04/M06 A3025 RMK A01 T10361060  RH  083%=      5-min Rain = 0
KPD4 191425Z 35016KT M04/M06 A3025 RMK A01 T10351059  RH  083%=      5-min Rain = 0
KPD4 191426Z 35019KT M04/M06 A3025 RMK A01 T10351059  RH  084%=      5-min Rain = 0
KPD4 191427Z 34018KT M04/M06 A3025 RMK A01 T10361060  RH  083%=      5-min Rain = 0
KPD4 191428Z 35018KT M04/M06 A3025 RMK A01 T10361060  RH  083%=      5-min Rain = 0
KPD4 191429Z 35016G21KT M04/M06 A3025 RMK A01 T10351060  RH  083%=      5-min Rain = 0
KPD4 191430Z 34019KT M04/M06 A3025 RMK A01 T10351060  RH  083%=      5-min Rain = 0
KPD4 191431Z 35018KT M04/M06 A3025 RMK A01 T10351060  RH  083%=      5-min Rain = 0
KPD4 191432Z 34019KT M04/M06 A3026 RMK A01 T10351060  RH  083%=      5-min Rain = 0
KPD4 191433Z 35020G25KT M04/M06 A3026 RMK A01 T10351060  RH  083%=      5-min Rain = 0
KPD4 191434Z 35022KT M03/M06 A3026 RMK A01 T10341060  RH  082%=      5-min Rain = 0
KPD4 191435Z 34019G24KT M03/M06 A3026 RMK A01 T10341061  RH  082%=      5-min Rain = 0
KPD4 191436Z 35017KT M03/M06 A3026 RMK A01 T10341060  RH  082%=      5-min Rain = 0
KPD4 191437Z 34021G27KT M03/M06 A3026 RMK A01 T10341060  RH  082%=      5-min Rain = 0
KPD4 191438Z 34021KT M03/M06 A3026 RMK A01 T10341061  RH  082%=      5-min Rain = 0
KPD4 191439Z 35019G24KT M03/M06 A3026 RMK A01 T10341061  RH  082%=      5-min Rain = 0
KPD4 191440Z 35020KT M03/M06 A3026 RMK A01 T10341060  RH  082%=      5-min Rain = 0
KPD4 191441Z 35022KT M03/M06 A3026 RMK A01 T10341060  RH  082%=      5-min Rain = 0
KPD4 191442Z 34020KT M03/M06 A3026 RMK A01 T10341061  RH  081%=      5-min Rain = 0
KPD4 191443Z 35021KT M03/M06 A3026 RMK A01 T10341061  RH  081%=      5-min Rain = 0
KPD4 191444Z 35020KT M03/M06 A3026 RMK A01 T10331061  RH  081%=      5-min Rain = 0
KPD4 191445Z 35019KT M03/M06 A3026 RMK A01 T10331061  RH  081%=      5-min Rain = 0
KPD4 191446Z 35022KT M03/M06 A3026 RMK A01 T10331061  RH  081%=      5-min Rain = 0
KPD4 191447Z 35023KT M03/M06 A3026 RMK A01 T10331062  RH  081%=      5-min Rain = 0
KPD4 191448Z 35021KT M03/M06 A3026 RMK A01 T10331062  RH  080%=      5-min Rain = 0
KPD4 191449Z 35020KT M03/M06 A3026 RMK A01 T10331062  RH  081%=      5-min Rain = 0
KPD4 191450Z 35018KT M03/M06 A3026 RMK A01 T10331062  RH  081%=      5-min Rain = 0
KPD4 191451Z 35021KT M03/M06 A3026 RMK A01 T10331062  RH  081%=      5-min Rain = 0
KPD4 191452Z 34018KT M03/M06 A3026 RMK A01 T10331062  RH  080%=      5-min Rain = 0
KPD4 191453Z 35020KT M03/M06 A3026 RMK A01 T10331062  RH  080%=      5-min Rain = 0
KPD4 191454Z 35019G24KT M03/M06 A3026 RMK A01 T10331063  RH  080%=      5-min Rain = 0
KPD4 191455Z 36017G22KT M03/M06 A3026 RMK A01 T10331063  RH  079%=      5-min Rain = 0
KPD4 191456Z 35020G26KT M03/M06 A3026 RMK A01 T10331063  RH  079%=      5-min Rain = 0
KPD4 191457Z 36018G23KT M03/M06 A3026 RMK A01 T10331064  RH  079%=      5-min Rain = 0
KPD4 191458Z 35018KT M03/M06 A3026 RMK A01 T10321063  RH  079%=      5-min Rain = 0
KPD4 191459Z 35023KT M03/M06 A3026 RMK A01 T10321064  RH  079%=      5-min Rain = 0
KPD4 191500Z 35018KT M03/M07 A3026 RMK A01 T10321065  RH  078%=      5-min Rain = 0
KPD4 191501Z 35018KT M03/M06 A3026 RMK A01 T10311063  RH  079%=      5-min Rain = 0
KPD4 191502Z 35018KT M03/M06 A3027 RMK A01 T10321063  RH  079%=      5-min Rain = 0
KPD4 191503Z 35018KT M03/M06 A3027 RMK A01 T10321063  RH  079%=      5-min Rain = 0
KPD4 191504Z 35021KT M03/M06 A3027 RMK A01 T10311063  RH  079%=      5-min Rain = 0
KPD4 191505Z 35019KT M03/M06 A3027 RMK A01 T10311064  RH  078%=      5-min Rain = 0
KPD4 191506Z 35018KT M03/M06 A3027 RMK A01 T10311064  RH  078%=      5-min Rain = 0
KPD4 191507Z 35017KT M03/M06 A3027 RMK A01 T10311063  RH  079%=      5-min Rain = 0
KPD4 191508Z 35018KT M03/M06 A3027 RMK A01 T10311063  RH  079%=      5-min Rain = 0
KPD4 191509Z 35019KT M03/M06 A3027 RMK A01 T10311062  RH  079%=      5-min Rain = 0
KPD4 191510Z 35020KT M03/M06 A3027 RMK A01 T10311063  RH  078%=      5-min Rain = 0
KPD4 191511Z 35020KT M03/M06 A3027 RMK A01 T10301063  RH  078%=      5-min Rain = 0
KPD4 191512Z 35016KT M03/M06 A3028 RMK A01 T10301063  RH  078%=      5-min Rain = 0
KPD4 191513Z 35017KT M03/M06 A3028 RMK A01 T10301062  RH  079%=      5-min Rain = 0
KPD4 191514Z 35016G21KT M03/M06 A3028 RMK A01 T10301062  RH  079%=      5-min Rain = 0
KPD4 191515Z 35018KT M03/M06 A3028 RMK A01 T10301061  RH  079%=      5-min Rain = 0
KPD4 191516Z 35017KT M03/M06 A3028 RMK A01 T10301062  RH  079%=      5-min Rain = 0
KPD4 191517Z 35019KT M03/M06 A3028 RMK A01 T10301062  RH  079%=      5-min Rain = 0
KPD4 191518Z 35020KT M03/M06 A3028 RMK A01 T10301062  RH  078%=      5-min Rain = 0
KPD4 191519Z 35020KT M03/M06 A3028 RMK A01 T10301063  RH  078%=      5-min Rain = 0
KPD4 191520Z 35019KT M03/M06 A3027 RMK A01 T10301063  RH  078%=      5-min Rain = 0
KPD4 191521Z 35020KT M03/M06 A3027 RMK A01 T10291063  RH  078%=      5-min Rain = 0
KPD4 191522Z 35015G20KT M03/M06 A3027 RMK A01 T10291063  RH  078%=      5-min Rain = 0
KPD4 191523Z 36016KT M03/M06 A3027 RMK A01 T10291062  RH  078%=      5-min Rain = 0
KPD4 191524Z 36017KT M03/M06 A3027 RMK A01 T10291062  RH  078%=      5-min Rain = 0
KPD4 191525Z 35018KT M03/M06 A3028 RMK A01 T10281061  RH  078%=      5-min Rain = 0
KPD4 191526Z 36019KT M03/M06 A3028 RMK A01 T10291062  RH  078%=      5-min Rain = 0
KPD4 191527Z 35017KT M03/M06 A3028 RMK A01 T10291062  RH  078%=      5-min Rain = 0
KPD4 191528Z 36017KT M03/M06 A3028 RMK A01 T10281061  RH  078%=      5-min Rain = 0
KPD4 191529Z 36017KT M03/M06 A3028 RMK A01 T10281061  RH  078%=      5-min Rain = 0
KPD4 191530Z 35019KT M03/M06 A3028 RMK A01 T10281061  RH  078%=      5-min Rain = 0
KPD4 191531Z 36018KT M03/M06 A3028 RMK A01 T10281062  RH  077%=      5-min Rain = 0
KPD4 191532Z 36019G24KT M03/M06 A3028 RMK A01 T10271061  RH  078%=      5-min Rain = 0
KPD4 191533Z 35020KT M03/M06 A3028 RMK A01 T10271061  RH  077%=      5-min Rain = 0
KPD4 191534Z 36021G26KT M03/M06 A3028 RMK A01 T10271062  RH  077%=      5-min Rain = 0
KPD4 191535Z 35022KT M03/M06 A3028 RMK A01 T10271063  RH  076%=      5-min Rain = 0
KPD4 191536Z 35022KT M03/M06 A3028 RMK A01 T10271063  RH  076%=      5-min Rain = 0
KPD4 191537Z 35020G25KT M03/M06 A3028 RMK A01 T10271063  RH  077%=      5-min Rain = 0
KPD4 191538Z 00020KT M03/M06 A3028 RMK A01 T10271062  RH  077%=      5-min Rain = 0
KPD4 191539Z 00018KT M03/M06 A3028 RMK A01 T10271062  RH  077%=      5-min Rain = 0
KPD4 191540Z 00017KT M03/M06 A3028 RMK A01 T10271062  RH  077%=      5-min Rain = 0
KPD4 191541Z 36017KT M03/M06 A3028 RMK A01 T10271061  RH  077%=      5-min Rain = 0
KPD4 191542Z 36020KT M03/M06 A3028 RMK A01 T10261061  RH  077%=      5-min Rain = 0
KPD4 191543Z 00022KT M03/M06 A3028 RMK A01 T10261061  RH  077%=      5-min Rain = 0
KPD4 191544Z 00022G27KT M03/M06 A3028 RMK A01 T10261062  RH  076%=      5-min Rain = 0
KPD4 191545Z 36024KT M03/M06 A3028 RMK A01 T10261063  RH  076%=      5-min Rain = 0
KPD4 191546Z 00022KT M03/M06 A3028 RMK A01 T10251062  RH  076%=      5-min Rain = 0
KPD4 191547Z 35017G26KT M02/M06 A3029 RMK A01 T10241061  RH  076%=      5-min Rain = 0
KPD4 191548Z 36020G26KT M02/M06 A3029 RMK A01 T10241060  RH  077%=      5-min Rain = 0
KPD4 191549Z 35020G28KT M02/M06 A3029 RMK A01 T10241060  RH  076%=      5-min Rain = 0
KPD4 191550Z 36025KT M02/M06 A3028 RMK A01 T10241061  RH  076%=      5-min Rain = 0
KPD4 191551Z 36025KT M03/M06 A3028 RMK A01 T10251062  RH  075%=      5-min Rain = 0
KPD4 191552Z 00022G27KT M03/M06 A3028 RMK A01 T10251063  RH  075%=      5-min Rain = 0
KPD4 191553Z 00021G26KT M03/M06 A3028 RMK A01 T10251062  RH  076%=      5-min Rain = 0
KPD4 191554Z 36022G28KT M03/M06 A3028 RMK A01 T10251061  RH  076%=      5-min Rain = 0
KPD4 191555Z 01021G27KT M03/M06 A3028 RMK A01 T10251061  RH  076%=      5-min Rain = 0
KPD4 191556Z 00020G26KT M03/M06 A3028 RMK A01 T10251061  RH  076%=      5-min Rain = 0
KPD4 191557Z 00023KT M02/M06 A3028 RMK A01 T10241061  RH  076%=      5-min Rain = 0
KPD4 191558Z 36020KT M02/M06 A3028 RMK A01 T10241060  RH  076%=      5-min Rain = 0
KPD4 191559Z 00020KT M02/M06 A3029 RMK A01 T10241059  RH  077%=      5-min Rain = 0
KPD4 191600Z 00019G26KT M02/M06 A3029 RMK A01 T10241059  RH  077%=      5-min Rain = 0
KPD4 191601Z 36021KT M02/M06 A3029 RMK A01 T10241059  RH  077%=      5-min Rain = 0
KPD4 191602Z 00023KT M02/M06 A3028 RMK A01 T10241059  RH  077%=      5-min Rain = 0
KPD4 191603Z 01025KT M02/M06 A3028 RMK A01 T10241059  RH  077%=      5-min Rain = 0
KPD4 191604Z 01022G27KT M02/M06 A3028 RMK A01 T10241060  RH  076%=      5-min Rain = 0
KPD4 191605Z 00023KT M02/M06 A3029 RMK A01 T10241060  RH  077%=      5-min Rain = 0
KPD4 191606Z 01019KT M02/M06 A3029 RMK A01 T10241059  RH  077%=      5-min Rain = 0
KPD4 191607Z 00018KT M02/M06 A3029 RMK A01 T10241057  RH  078%=      5-min Rain = 0
KPD4 191608Z 36020KT M02/M06 A3029 RMK A01 T10241057  RH  078%=      5-min Rain = 0
KPD4 191609Z 36019G24KT M02/M06 A3029 RMK A01 T10231057  RH  077%=      5-min Rain = 0
KPD4 191610Z 36017KT M02/M06 A3029 RMK A01 T10231057  RH  077%=      5-min Rain = 0
KPD4 191611Z 36018G23KT M02/M06 A3029 RMK A01 T10231057  RH  078%=      5-min Rain = 0
KPD4 191612Z 35019KT M02/M06 A3029 RMK A01 T10231057  RH  078%=      5-min Rain = 0
KPD4 191613Z 35016KT M02/M06 A303 RMK A01 T10231056  RH  078%=      5-min Rain = 0
KPD4 191614Z 36018G24KT M02/M06 A303 RMK A01 T10221055  RH  078%=      5-min Rain = 0
KPD4 191615Z 35023KT M02/M06 A303 RMK A01 T10221056  RH  078%=      5-min Rain = 0
KPD4 191616Z 36023G29KT M02/M06 A303 RMK A01 T10231058  RH  077%=      5-min Rain = 0
KPD4 191617Z 36022KT M02/M06 A303 RMK A01 T10231058  RH  077%=      5-min Rain = 0
KPD4 191618Z 35023KT M02/M06 A303 RMK A01 T10231058  RH  077%=      5-min Rain = 0
KPD4 191619Z 35021KT M02/M06 A303 RMK A01 T10241058  RH  077%=      5-min Rain = 0
KPD4 191620Z 35020KT M02/M06 A3031 RMK A01 T10231058  RH  077%=      5-min Rain = 0
KPD4 191621Z 35021KT M02/M06 A3031 RMK A01 T10241058  RH  077%=      5-min Rain = 0
KPD4 191622Z 36021KT M02/M06 A303 RMK A01 T10241059  RH  077%=      5-min Rain = 0
KPD4 191623Z 35020KT M02/M06 A3031 RMK A01 T10241058  RH  077%=      5-min Rain = 0
KPD4 191624Z 35018KT M02/M06 A3031 RMK A01 T10231057  RH  078%=      5-min Rain = 0
KPD4 191625Z 35020KT M02/M06 A3031 RMK A01 T10231057  RH  078%=      5-min Rain = 0
KPD4 191626Z 35022KT M02/M06 A3031 RMK A01 T10231058  RH  077%=      5-min Rain = 0
KPD4 191627Z 36020KT M02/M06 A3031 RMK A01 T10241059  RH  077%=      5-min Rain = 0
KPD4 191628Z 00015KT M02/M06 A3031 RMK A01 T10241058  RH  077%=      5-min Rain = 0
KPD4 191629Z 00017G23KT M02/M06 A3031 RMK A01 T10231056  RH  078%=      5-min Rain = 0
KPD4 191630Z 01021KT M02/M06 A3031 RMK A01 T10231058  RH  077%=      5-min Rain = 0
KPD4 191631Z 00022KT M02/M06 A3031 RMK A01 T10241059  RH  077%=      5-min Rain = 0
KPD4 191632Z 00023KT M02/M06 A3031 RMK A01 T10241059  RH  076%=      5-min Rain = 0
KPD4 191633Z 36019KT M02/M06 A3031 RMK A01 T10241060  RH  076%=      5-min Rain = 0
KPD4 191634Z 36018G23KT M02/M06 A3031 RMK A01 T10241059  RH  077%=      5-min Rain = 0
KPD4 191635Z 36020KT M02/M06 A3031 RMK A01 T10231059  RH  077%=      5-min Rain = 0
KPD4 191636Z 00019G25KT M02/M06 A3031 RMK A01 T10231059  RH  076%=      5-min Rain = 0
KPD4 191637Z 00017G23KT M02/M06 A3031 RMK A01 T10241059  RH  077%=      5-min Rain = 0
KPD4 191638Z 36020KT M02/M06 A3031 RMK A01 T10231059  RH  076%=      5-min Rain = 0
KPD4 191639Z 01020G25KT M02/M06 A3031 RMK A01 T10231060  RH  076%=      5-min Rain = 0
KPD4 191640Z 00018G24KT M02/M06 A3031 RMK A01 T10231061  RH  076%=      5-min Rain = 0
KPD4 191641Z 00020KT M02/M06 A3032 RMK A01 T10231061  RH  075%=      5-min Rain = 0
KPD4 191642Z 00021KT M02/M06 A3032 RMK A01 T10241062  RH  075%=      5-min Rain = 0
KPD4 191643Z 36019KT M02/M06 A3032 RMK A01 T10241062  RH  075%=      5-min Rain = 0
KPD4 191644Z 35018KT M02/M06 A3032 RMK A01 T10241062  RH  075%=      5-min Rain = 0
KPD4 191645Z 35018KT M02/M06 A3032 RMK A01 T10241062  RH  075%=      5-min Rain = 0
KPD4 191646Z 00014KT M02/M06 A3032 RMK A01 T10241061  RH  076%=      5-min Rain = 0
KPD4 191647Z 00012KT M02/M06 A3032 RMK A01 T10231059  RH  077%=      5-min Rain = 0
KPD4 191648Z 00012KT M02/M06 A3032 RMK A01 T10231058  RH  076%=      5-min Rain = 0
KPD4 191649Z 00014G19KT M02/M06 A3032 RMK A01 T10221059  RH  076%=      5-min Rain = 0
KPD4 191650Z 00019KT M02/M06 A3032 RMK A01 T10231060  RH  075%=      5-min Rain = 0
KPD4 191651Z 00018KT M02/M06 A3032 RMK A01 T10231061  RH  075%=      5-min Rain = 0
KPD4 191652Z 35018KT M02/M06 A3032 RMK A01 T10241062  RH  075%=      5-min Rain = 0
KPD4 191653Z 36014G20KT M02/M06 A3032 RMK A01 T10241062  RH  075%=      5-min Rain = 0
KPD4 191654Z 35017KT M02/M06 A3032 RMK A01 T10241061  RH  075%=      5-min Rain = 0
KPD4 191655Z 35017KT M02/M06 A3032 RMK A01 T10231061  RH  075%=      5-min Rain = 0
KPD4 191656Z 36014KT M02/M06 A3033 RMK A01 T10231060  RH  076%=      5-min Rain = 0
KPD4 191657Z 35016KT M02/M06 A3033 RMK A01 T10231059  RH  076%=      5-min Rain = 0
KPD4 191658Z 35017KT M02/M06 A3033 RMK A01 T10231060  RH  075%=      5-min Rain = 0
KPD4 191659Z 35016KT M02/M06 A3033 RMK A01 T10221060  RH  075%=      5-min Rain = 0
KPD4 191700Z 00016KT M02/M06 A3033 RMK A01 T10231060  RH  075%=      5-min Rain = 0
KPD4 191701Z 00017KT M02/M06 A3033 RMK A01 T10231060  RH  076%=      5-min Rain = 0
KPD4 191702Z 00018KT M02/M06 A3033 RMK A01 T10231061  RH  075%=      5-min Rain = 0
KPD4 191703Z 00019KT M02/M06 A3033 RMK A01 T10231061  RH  075%=      5-min Rain = 0
KPD4 191704Z 36016KT M02/M06 A3033 RMK A01 T10231061  RH  075%=      5-min Rain = 0
KPD4 191705Z 00017G22KT M02/M06 A3033 RMK A01 T10231060  RH  075%=      5-min Rain = 0
KPD4 191706Z 36017KT M02/M06 A3033 RMK A01 T10231060  RH  076%=      5-min Rain = 0
KPD4 191707Z 36017G22KT M02/M06 A3033 RMK A01 T10231059  RH  076%=      5-min Rain = 0
KPD4 191708Z 01019KT M02/M06 A3033 RMK A01 T10231060  RH  076%=      5-min Rain = 0
KPD4 191709Z 01018KT M02/M06 A3033 RMK A01 T10231059  RH  076%=      5-min Rain = 0
KPD4 191710Z 01018KT M02/M06 A3033 RMK A01 T10231059  RH  076%=      5-min Rain = 0
KPD4 191711Z 01013KT M02/M06 A3033 RMK A01 T10231059  RH  076%=      5-min Rain = 0
KPD4 191712Z 01018KT M02/M06 A3033 RMK A01 T10221056  RH  077%=      5-min Rain = 0
KPD4 191713Z 00019KT M02/M06 A3033 RMK A01 T10211058  RH  076%=      5-min Rain = 0
KPD4 191714Z 00016KT M02/M06 A3033 RMK A01 T10211058  RH  076%=      5-min Rain = 0
KPD4 191715Z 00019KT M02/M06 A3033 RMK A01 T10211059  RH  076%=      5-min Rain = 0
KPD4 191716Z 01017G22KT M02/M06 A3033 RMK A01 T10221060  RH  075%=      5-min Rain = 0
KPD4 191717Z 01018KT M02/M06 A3033 RMK A01 T10221060  RH  075%=      5-min Rain = 0
KPD4 191718Z 00017G22KT M02/M06 A3033 RMK A01 T10221059  RH  076%=      5-min Rain = 0
KPD4 191719Z 00020KT M02/M06 A3033 RMK A01 T10211059  RH  076%=      5-min Rain = 0
KPD4 191720Z 01020KT M02/M06 A3033 RMK A01 T10221060  RH  075%=      5-min Rain = 0
KPD4 191721Z 36018KT M02/M06 A3033 RMK A01 T10211058  RH  076%=      5-min Rain = 0
KPD4 191722Z 36015KT M02/M06 A3033 RMK A01 T10211057  RH  076%=      5-min Rain = 0
KPD4 191723Z 35017KT M02/M06 A3033 RMK A01 T10191055  RH  076%=      5-min Rain = 0
KPD4 191724Z 36018KT M02/M06 A3033 RMK A01 T10191056  RH  075%=      5-min Rain = 0
KPD4 191725Z 36017KT M02/M06 A3033 RMK A01 T10201058  RH  075%=      5-min Rain = 0
KPD4 191726Z 36017KT M02/M06 A3033 RMK A01 T10201058  RH  075%=      5-min Rain = 0
KPD4 191727Z 36015KT M02/M06 A3033 RMK A01 T10201059  RH  075%=      5-min Rain = 0
KPD4 191728Z 35017KT M02/M06 A3033 RMK A01 T10191058  RH  075%=      5-min Rain = 0
KPD4 191729Z 35016KT M02/M06 A3033 RMK A01 T10191058  RH  075%=      5-min Rain = 0
KPD4 191730Z 36015KT M02/M06 A3033 RMK A01 T10191058  RH  075%=      5-min Rain = 0
KPD4 191731Z 01016G22KT M02/M06 A3033 RMK A01 T10181056  RH  075%=      5-min Rain = 0
KPD4 191732Z 01017KT M02/M06 A3033 RMK A01 T10171056  RH  075%=      5-min Rain = 0
KPD4 191733Z 00016KT M02/M06 A3033 RMK A01 T10171056  RH  074%=      5-min Rain = 0
KPD4 191734Z 01018KT M02/M06 A3033 RMK A01 T10171057  RH  074%=      5-min Rain = 0
KPD4 191735Z 36017KT M02/M06 A3033 RMK A01 T10171058  RH  073%=      5-min Rain = 0
KPD4 191736Z 00018KT M02/M06 A3033 RMK A01 T10171058  RH  073%=      5-min Rain = 0
KPD4 191737Z 00017G22KT M02/M06 A3033 RMK A01 T10171058  RH  073%=      5-min Rain = 0
KPD4 191738Z 00019KT M02/M06 A3033 RMK A01 T10161058  RH  073%=      5-min Rain = 0
KPD4 191739Z 36016KT M02/M06 A3033 RMK A01 T10161057  RH  074%=      5-min Rain = 0
KPD4 191740Z 00017KT M01/M06 A3033 RMK A01 T10141055  RH  074%=      5-min Rain = 0
KPD4 191741Z 35019KT M01/M06 A3034 RMK A01 T10131057  RH  072%=      5-min Rain = 0
KPD4 191742Z 35017KT M01/M06 A3034 RMK A01 T10141058  RH  072%=      5-min Rain = 0
KPD4 191743Z 34017KT M02/M06 A3034 RMK A01 T10151056  RH  074%=      5-min Rain = 0
KPD4 191744Z 35018G24KT M02/M05 A3034 RMK A01 T10151054  RH  074%=      5-min Rain = 0
KPD4 191745Z 35017G22KT M02/M06 A3034 RMK A01 T10151055  RH  074%=      5-min Rain = 0
KPD4 191746Z 35016KT M02/M05 A3034 RMK A01 T10151054  RH  075%=      5-min Rain = 0
KPD4 191747Z 35019G25KT M02/M05 A3034 RMK A01 T10151054  RH  075%=      5-min Rain = 0
KPD4 191748Z 35022KT M02/M06 A3034 RMK A01 T10151056  RH  074%=      5-min Rain = 0
KPD4 191749Z 34017KT M02/M06 A3034 RMK A01 T10161058  RH  073%=      5-min Rain = 0
KPD4 191750Z 35019KT M02/M06 A3033 RMK A01 T10161056  RH  074%=      5-min Rain = 0
KPD4 191751Z 35017KT M02/M06 A3033 RMK A01 T10161056  RH  074%=      5-min Rain = 0
KPD4 191752Z 36018KT M02/M05 A3033 RMK A01 T10161054  RH  075%=      5-min Rain = 0
KPD4 191753Z 36020KT M02/M06 A3033 RMK A01 T10161055  RH  074%=      5-min Rain = 0
KPD4 191754Z 36019KT M02/M06 A3033 RMK A01 T10161056  RH  074%=      5-min Rain = 0
KPD4 191755Z 35019KT M02/M06 A3033 RMK A01 T10161056  RH  075%=      5-min Rain = 0
KPD4 191756Z 35018KT M02/M06 A3033 RMK A01 T10171056  RH  075%=      5-min Rain = 0
KPD4 191757Z 35015KT M02/M05 A3033 RMK A01 T10161053  RH  076%=      5-min Rain = 0
KPD4 191758Z 35019KT M01/M05 A3033 RMK A01 T10141052  RH  075%=      5-min Rain = 0
KPD4 191759Z 35018KT M02/M05 A3033 RMK A01 T10151054  RH  075%=      5-min Rain = 0
KPD4 191800Z 35017KT M02/M06 A3033 RMK A01 T10151055  RH  074%=      5-min Rain = 0
KPD4 191801Z 36017KT M02/M05 A3034 RMK A01 T10151054  RH  075%=      5-min Rain = 0
KPD4 191802Z 36015KT M02/M05 A3034 RMK A01 T10151053  RH  075%=      5-min Rain = 0
KPD4 191803Z 35018KT M01/M05 A3033 RMK A01 T10141052  RH  076%=      5-min Rain = 0
KPD4 191804Z 35017KT M01/M05 A3034 RMK A01 T10131052  RH  075%=      5-min Rain = 0
KPD4 191805Z 35017KT M01/M05 A3034 RMK A01 T10131053  RH  074%=      5-min Rain = 0
KPD4 191806Z 35015G21KT M01/M05 A3033 RMK A01 T10141051  RH  076%=      5-min Rain = 0
KPD4 191807Z 35020KT M01/M05 A3033 RMK A01 T10131051  RH  075%=      5-min Rain = 0
KPD4 191808Z 35019KT M02/M05 A3033 RMK A01 T10151054  RH  075%=      5-min Rain = 0
KPD4 191809Z 35017KT M02/M05 A3033 RMK A01 T10151054  RH  075%=      5-min Rain = 0
KPD4 191810Z 36017KT M02/M05 A3033 RMK A01 T10151052  RH  076%=      5-min Rain = 0
KPD4 191811Z 36017KT M01/M05 A3033 RMK A01 T10141052  RH  075%=      5-min Rain = 0
KPD4 191812Z 36017KT M01/M05 A3033 RMK A01 T10141053  RH  074%=      5-min Rain = 0
KPD4 191813Z 35017KT M01/M05 A3033 RMK A01 T10141054  RH  074%=      5-min Rain = 0
KPD4 191814Z 35014KT M01/M05 A3033 RMK A01 T10131050  RH  076%=      5-min Rain = 0
KPD4 191815Z 35015KT M01/M05 A3033 RMK A01 T10111049  RH  075%=      5-min Rain = 0
KPD4 191816Z 34016KT M01/M05 A3033 RMK A01 T10121050  RH  075%=      5-min Rain = 0
KPD4 191817Z 35016KT M01/M05 A3033 RMK A01 T10121049  RH  076%=      5-min Rain = 0
KPD4 191818Z 36016KT M01/M05 A3033 RMK A01 T10131051  RH  075%=      5-min Rain = 0
KPD4 191819Z 36018KT M01/M05 A3032 RMK A01 T10141052  RH  075%=      5-min Rain = 0
KPD4 191820Z 00018KT M01/M05 A3032 RMK A01 T10141054  RH  074%=      5-min Rain = 0
KPD4 191821Z 35015KT M02/M05 A3032 RMK A01 T10151054  RH  075%=      5-min Rain = 0
KPD4 191822Z 34014KT M01/M05 A3032 RMK A01 T10141050  RH  076%=      5-min Rain = 0
KPD4 191823Z 34016KT M01/M05 A3032 RMK A01 T10121049  RH  076%=      5-min Rain = 0
KPD4 191824Z 34016KT M01/M05 A3032 RMK A01 T10121050  RH  075%=      5-min Rain = 0
KPD4 191825Z 34013KT M01/M05 A3032 RMK A01 T10121050  RH  075%=      5-min Rain = 0
KPD4 191826Z 35015KT M01/M05 A3032 RMK A01 T10121050  RH  075%=      5-min Rain = 0
KPD4 191827Z 36016KT M01/M05 A3032 RMK A01 T10121051  RH  075%=      5-min Rain = 0
KPD4 191828Z 35015KT M01/M05 A3032 RMK A01 T10121051  RH  075%=      5-min Rain = 0
KPD4 191829Z 36014KT M01/M05 A3032 RMK A01 T10131051  RH  075%=      5-min Rain = 0
KPD4 191830Z 00013KT M01/M05 A3032 RMK A01 T10131050  RH  075%=      5-min Rain = 0
KPD4 191831Z 35012KT M01/M05 A3032 RMK A01 T10121049  RH  076%=      5-min Rain = 0
KPD4 191832Z 34014KT M01/M05 A3032 RMK A01 T10111049  RH  076%=      5-min Rain = 0
KPD4 191833Z 34015KT M01/M05 A3032 RMK A01 T10121051  RH  075%=      5-min Rain = 0
KPD4 191834Z 34014KT M01/M05 A3031 RMK A01 T10131051  RH  075%=      5-min Rain = 0
KPD4 191835Z 35014KT M01/M05 A3031 RMK A01 T10131051  RH  075%=      5-min Rain = 0
KPD4 191836Z 35012KT M01/M05 A3031 RMK A01 T10121050  RH  076%=      5-min Rain = 0
KPD4 191837Z 34013KT M01/M05 A3031 RMK A01 T10121049  RH  076%=      5-min Rain = 0
KPD4 191838Z 34011KT M01/M05 A3031 RMK A01 T10121050  RH  076%=      5-min Rain = 0
KPD4 191839Z 34013KT M01/M05 A3031 RMK A01 T10111047  RH  077%=      5-min Rain = 0
KPD4 191840Z 35014KT M01/M05 A3031 RMK A01 T10111049  RH  075%=      5-min Rain = 0
KPD4 191841Z 34011KT M01/M05 A3031 RMK A01 T10121051  RH  075%=      5-min Rain = 0
KPD4 191842Z 35012KT M01/M05 A3031 RMK A01 T10121050  RH  075%=      5-min Rain = 0
KPD4 191843Z 36011KT M01/M05 A3031 RMK A01 T10121049  RH  076%=      5-min Rain = 0
KPD4 191844Z 35013KT M01/M05 A3031 RMK A01 T10111049  RH  075%=      5-min Rain = 0
KPD4 191845Z 35012KT M01/M05 A3031 RMK A01 T10131051  RH  075%=      5-min Rain = 0
KPD4 191846Z 35013KT M01/M05 A3031 RMK A01 T10131051  RH  075%=      5-min Rain = 0
KPD4 191847Z 36013KT M01/M05 A3031 RMK A01 T10131052  RH  075%=      5-min Rain = 0
KPD4 191848Z 35012KT M01/M05 A3031 RMK A01 T10131050  RH  076%=      5-min Rain = 0
KPD4 191849Z 34013KT M01/M05 A3031 RMK A01 T10131050  RH  076%=      5-min Rain = 0
KPD4 191850Z 34011KT M01/M05 A3031 RMK A01 T10131051  RH  075%=      5-min Rain = 0
KPD4 191851Z 34011KT M01/M05 A3031 RMK A01 T10131050  RH  076%=      5-min Rain = 0
KPD4 191852Z 34012KT M01/M05 A3031 RMK A01 T10131050  RH  076%=      5-min Rain = 0
KPD4 191853Z 34012KT M01/M05 A3031 RMK A01 T10131050  RH  076%=      5-min Rain = 0
KPD4 191854Z 35013KT M01/M05 A3031 RMK A01 T10131050  RH  076%=      5-min Rain = 0
KPD4 191855Z 35011KT M01/M05 A303 RMK A01 T10121050  RH  076%=      5-min Rain = 0
KPD4 191856Z 34012KT M01/M05 A303 RMK A01 T10121049  RH  076%=      5-min Rain = 0
KPD4 191857Z 35010KT M01/M05 A303 RMK A01 T10111049  RH  076%=      5-min Rain = 0
KPD4 191858Z 34012KT M01/M05 A303 RMK A01 T10101048  RH  076%=      5-min Rain = 0
KPD4 191859Z 34012KT M01/M05 A303 RMK A01 T10101049  RH  075%=      5-min Rain = 0
KPD4 191900Z 33011KT M01/M05 A303 RMK A01 T10101049  RH  075%=      5-min Rain = 0
KPD4 191901Z 33010KT M01/M05 A303 RMK A01 T10111047  RH  076%=      5-min Rain = 0
KPD4 191902Z 33012KT M01/M05 A303 RMK A01 T10101046  RH  076%=      5-min Rain = 0
KPD4 191903Z 33010KT M01/M05 A303 RMK A01 T10101048  RH  076%=      5-min Rain = 0
KPD4 191904Z 33011KT M01/M05 A303 RMK A01 T10101046  RH  076%=      5-min Rain = 0
KPD4 191905Z 34011KT M01/M05 A303 RMK A01 T10091048  RH  075%=      5-min Rain = 0
KPD4 191906Z 34011KT M01/M05 A303 RMK A01 T10101048  RH  075%=      5-min Rain = 0
KPD4 191907Z 34010KT M01/M05 A303 RMK A01 T10101047  RH  076%=      5-min Rain = 0
KPD4 191908Z 34012KT M01/M05 A303 RMK A01 T10081045  RH  076%=      5-min Rain = 0
KPD4 191909Z 34012KT M01/M04 A303 RMK A01 T10071044  RH  076%=      5-min Rain = 0
KPD4 191910Z 34010KT M01/M05 A303 RMK A01 T10081048  RH  075%=      5-min Rain = 0
KPD4 191911Z 35010KT M01/M05 A3029 RMK A01 T10091046  RH  076%=      5-min Rain = 0
KPD4 191912Z 35011KT M01/M04 A3029 RMK A01 T10081044  RH  077%=      5-min Rain = 0
KPD4 191913Z 35012KT M01/M05 A3029 RMK A01 T10081045  RH  076%=      5-min Rain = 0
KPD4 191914Z 35012KT M01/M04 A3029 RMK A01 T10081044  RH  076%=      5-min Rain = 0
KPD4 191915Z 34011KT M01/M04 A3029 RMK A01 T10071043  RH  077%=      5-min Rain = 0
KPD4 191916Z 34014KT M01/M04 A3029 RMK A01 T10071044  RH  076%=      5-min Rain = 0
KPD4 191917Z 33012KT M01/M05 A3029 RMK A01 T10071045  RH  076%=      5-min Rain = 0
KPD4 191918Z 33012KT M01/M04 A3029 RMK A01 T10071044  RH  076%=      5-min Rain = 0
KPD4 191919Z 33013KT M01/M05 A3029 RMK A01 T10081045  RH  076%=      5-min Rain = 0
KPD4 191920Z 33012KT M01/M05 A3029 RMK A01 T10081045  RH  076%=      5-min Rain = 0
KPD4 191921Z 34012KT M01/M04 A3029 RMK A01 T10091044  RH  077%=      5-min Rain = 0
KPD4 191922Z 33011KT M01/M05 A3029 RMK A01 T10091046  RH  076%=      5-min Rain = 0
KPD4 191923Z 33008KT M01/M05 A3029 RMK A01 T10101045  RH  077%=      5-min Rain = 0
KPD4 191924Z 34011KT M01/M04 A3029 RMK A01 T10071039  RH  079%=      5-min Rain = 0
KPD4 191925Z 33013KT M00/M04 A3029 RMK A01 T10041038  RH  078%=      5-min Rain = 0
KPD4 191926Z 34011KT M00/M04 A3029 RMK A01 T10041042  RH  076%=      5-min Rain = 0
KPD4 191927Z 34012KT M01/M04 A3028 RMK A01 T10061043  RH  076%=      5-min Rain = 0
KPD4 191928Z 33012KT M01/M04 A3029 RMK A01 T10061042  RH  077%=      5-min Rain = 0
KPD4 191929Z 32011KT M01/M04 A3029 RMK A01 T10061043  RH  076%=      5-min Rain = 0
KPD4 191930Z 33008KT M01/M04 A3028 RMK A01 T10061041  RH  078%=      5-min Rain = 0
KPD4 191931Z 32009KT M01/M04 A3028 RMK A01 T10051038  RH  078%=      5-min Rain = 0
KPD4 191932Z 32009KT M00/M04 A3028 RMK A01 T10041037  RH  078%=      5-min Rain = 0
KPD4 191933Z 32011KT M00/M04 A3028 RMK A01 T10031038  RH  077%=      5-min Rain = 0
KPD4 191934Z 33012KT M00/M04 A3028 RMK A01 T10031039  RH  077%=      5-min Rain = 0
KPD4 191935Z 34012KT M00/M04 A3028 RMK A01 T10041041  RH  076%=      5-min Rain = 0
KPD4 191936Z 32011KT M01/M04 A3028 RMK A01 T10051040  RH  077%=      5-min Rain = 0
KPD4 191937Z 32013KT M00/M04 A3028 RMK A01 T10041039  RH  077%=      5-min Rain = 0
KPD4 191938Z 33012KT M00/M04 A3028 RMK A01 T10041040  RH  077%=      5-min Rain = 0
KPD4 191939Z 33013KT M00/M04 A3028 RMK A01 T10041039  RH  077%=      5-min Rain = 0
KPD4 191940Z 32013KT M00/M04 A3028 RMK A01 T10041041  RH  076%=      5-min Rain = 0
KPD4 191941Z 33012KT M01/M04 A3028 RMK A01 T10051040  RH  077%=      5-min Rain = 0
KPD4 191942Z 33012KT M01/M04 A3028 RMK A01 T10051041  RH  077%=      5-min Rain = 0
KPD4 191943Z 33013KT M01/M04 A3028 RMK A01 T10061042  RH  077%=      5-min Rain = 0
KPD4 191944Z 33013KT M01/M04 A3028 RMK A01 T10051040  RH  078%=      5-min Rain = 0
KPD4 191945Z 33011KT M01/M04 A3028 RMK A01 T10051040  RH  077%=      5-min Rain = 0
KPD4 191946Z 33013KT M00/M04 A3028 RMK A01 T10031037  RH  078%=      5-min Rain = 0
KPD4 191947Z 34012KT M00/M04 A3028 RMK A01 T10021039  RH  076%=      5-min Rain = 0
KPD4 191948Z 35012KT M00/M04 A3028 RMK A01 T10021037  RH  077%=      5-min Rain = 0
KPD4 191949Z 33013KT M00/M04 A3028 RMK A01 T10021037  RH  077%=      5-min Rain = 0
KPD4 191950Z 32013KT M00/M04 A3028 RMK A01 T10021036  RH  078%=      5-min Rain = 0
KPD4 191951Z 32012KT M00/M04 A3028 RMK A01 T10021037  RH  077%=      5-min Rain = 0
KPD4 191952Z 32011KT M00/M03 A3028 RMK A01 T10021034  RH  078%=      5-min Rain = 0
KPD4 191953Z 32011KT 00/03 A3028 RMK A01 T00-00-33  RH  079%=      5-min Rain = 0
KPD4 191954Z 33012KT 00/04 A3027 RMK A01 T00-00-35  RH  077%=      5-min Rain = 0
KPD4 191955Z 33013KT M00/M04 A3027 RMK A01 T10011037  RH  077%=      5-min Rain = 0
KPD4 191956Z 32012KT M00/M04 A3027 RMK A01 T10021040  RH  076%=      5-min Rain = 0
KPD4 191957Z 31013KT M00/M04 A3027 RMK A01 T10021038  RH  076%=      5-min Rain = 0
KPD4 191958Z 32012KT 00/04 A3027 RMK A01 T00-00-36  RH  077%=      5-min Rain = 0
KPD4 191959Z 32011G16KT 00/03 A3027 RMK A01 T00000-33  RH  078%=      5-min Rain = 0
KPD4 192000Z 33013KT 00/M03 A3027 RMK A01 T00011034  RH  077%=      5-min Rain = 0
KPD4 192001Z 32014KT 00/M04 A3027 RMK A01 T00011035  RH  077%=      5-min Rain = 0
KPD4 192002Z 33012KT 00/M03 A3027 RMK A01 T00011034  RH  077%=      5-min Rain = 0
KPD4 192003Z 33012KT 00/04 A3027 RMK A01 T00000-37  RH  076%=      5-min Rain = 0
KPD4 192004Z 33012KT 00/04 A3027 RMK A01 T00-00-35  RH  078%=      5-min Rain = 0
KPD4 192005Z 33011KT 00/03 A3027 RMK A01 T00000-34  RH  078%=      5-min Rain = 0
KPD4 192006Z 34010KT 00/M03 A3027 RMK A01 T00011034  RH  077%=      5-min Rain = 0
KPD4 192007Z 33013KT 00/M03 A3027 RMK A01 T00011032  RH  078%=      5-min Rain = 0
KPD4 192008Z 34012KT 00/M04 A3027 RMK A01 T00011035  RH  077%=      5-min Rain = 0
KPD4 192009Z 34014KT 00/M04 A3027 RMK A01 T00011036  RH  076%=      5-min Rain = 0
KPD4 192010Z 33012KT 00/M04 A3027 RMK A01 T00011035  RH  077%=      5-min Rain = 0
KPD4 192011Z 33011KT 00/M03 A3027 RMK A01 T00011034  RH  077%=      5-min Rain = 0
KPD4 192012Z 33012KT 00/M03 A3027 RMK A01 T00011034  RH  077%=      5-min Rain = 0
KPD4 192013Z 33010KT 00/M03 A3027 RMK A01 T00011034  RH  077%=      5-min Rain = 0
KPD4 192014Z 33008KT 00/M03 A3027 RMK A01 T00021032  RH  078%=      5-min Rain = 0
KPD4 192015Z 32011KT 00/M03 A3027 RMK A01 T00031029  RH  079%=      5-min Rain = 0
KPD4 192016Z 32013KT 01/M03 A3027 RMK A01 T00051030  RH  077%=      5-min Rain = 0
KPD4 192017Z 32012KT 00/M03 A3027 RMK A01 T00031034  RH  076%=      5-min Rain = 0
KPD4 192018Z 31014KT 00/M03 A3027 RMK A01 T00031033  RH  077%=      5-min Rain = 0
KPD4 192019Z 31012KT 00/M03 A3027 RMK A01 T00031032  RH  077%=      5-min Rain = 0
KPD4 192020Z 32012KT 00/M03 A3027 RMK A01 T00041030  RH  078%=      5-min Rain = 0
KPD4 192021Z 31012KT 00/M03 A3027 RMK A01 T00041032  RH  077%=      5-min Rain = 0
KPD4 192022Z 32013KT 00/M03 A3027 RMK A01 T00031033  RH  077%=      5-min Rain = 0
KPD4 192023Z 32013KT 00/M03 A3027 RMK A01 T00031032  RH  077%=      5-min Rain = 0
KPD4 192024Z 32012KT 00/M03 A3027 RMK A01 T00031032  RH  077%=      5-min Rain = 0
KPD4 192025Z 32015KT 00/M03 A3026 RMK A01 T00031033  RH  077%=      5-min Rain = 0
KPD4 192026Z 31014KT 00/M03 A3026 RMK A01 T00021034  RH  076%=      5-min Rain = 0
KPD4 192027Z 31012KT 00/M04 A3026 RMK A01 T00021035  RH  076%=      5-min Rain = 0
KPD4 192028Z 33012KT 00/M03 A3026 RMK A01 T00031031  RH  078%=      5-min Rain = 0
KPD4 192029Z 32013KT 01/M03 A3026 RMK A01 T00051029  RH  078%=      5-min Rain = 0
KPD4 192030Z 31012KT 01/M03 A3026 RMK A01 T00061028  RH  078%=      5-min Rain = 0
KPD4 192031Z 31013KT 01/M03 A3026 RMK A01 T00061029  RH  077%=      5-min Rain = 0
KPD4 192032Z 32011KT 01/M03 A3027 RMK A01 T00051032  RH  076%=      5-min Rain = 0
KPD4 192033Z 33011KT 01/M03 A3027 RMK A01 T00051032  RH  077%=      5-min Rain = 0
KPD4 192034Z 33010KT 00/M03 A3027 RMK A01 T00041033  RH  076%=      5-min Rain = 0
KPD4 192035Z 32012KT 00/M03 A3027 RMK A01 T00041031  RH  077%=      5-min Rain = 0
KPD4 192036Z 32012KT 01/M03 A3027 RMK A01 T00051030  RH  077%=      5-min Rain = 0
KPD4 192037Z 32011KT 01/M03 A3027 RMK A01 T00051031  RH  077%=      5-min Rain = 0
KPD4 192038Z 31012KT 00/M03 A3027 RMK A01 T00041032  RH  077%=      5-min Rain = 0
KPD4 192039Z 32014KT 00/M03 A3027 RMK A01 T00041032  RH  077%=      5-min Rain = 0
KPD4 192040Z 31013KT 00/M03 A3027 RMK A01 T00031034  RH  076%=      5-min Rain = 0
KPD4 192041Z 32012KT 00/M03 A3027 RMK A01 T00041032  RH  077%=      5-min Rain = 0
KPD4 192042Z 32010KT 01/M03 A3026 RMK A01 T00061027  RH  079%=      5-min Rain = 0
KPD4 192043Z 33011KT 01/M03 A3026 RMK A01 T00071027  RH  078%=      5-min Rain = 0
KPD4 192044Z 33012KT 01/M03 A3026 RMK A01 T00071029  RH  077%=      5-min Rain = 0
KPD4 192045Z 33012KT 01/M03 A3026 RMK A01 T00061031  RH  076%=      5-min Rain = 0
KPD4 192046Z 33010KT 01/M03 A3026 RMK A01 T00061031  RH  077%=      5-min Rain = 0
KPD4 192047Z 33012KT 01/M03 A3026 RMK A01 T00071029  RH  077%=      5-min Rain = 0
KPD4 192048Z 32013KT 01/M03 A3026 RMK A01 T00081027  RH  077%=      5-min Rain = 0
KPD4 192049Z 32013KT 01/M03 A3026 RMK A01 T00081029  RH  076%=      5-min Rain = 0
KPD4 192050Z 33012KT 01/M03 A3026 RMK A01 T00061031  RH  076%=      5-min Rain = 0
KPD4 192051Z 32011KT 01/M03 A3026 RMK A01 T00051032  RH  076%=      5-min Rain = 0
KPD4 192052Z 32010KT 01/M03 A3026 RMK A01 T00051030  RH  077%=      5-min Rain = 0
KPD4 192053Z 32010KT 01/M03 A3026 RMK A01 T00071026  RH  078%=      5-min Rain = 0
KPD4 192054Z 32012KT 01/M03 A3026 RMK A01 T00091026  RH  077%=      5-min Rain = 0
KPD4 192055Z 32014KT 01/M03 A3026 RMK A01 T00091028  RH  076%=      5-min Rain = 0
KPD4 192056Z 32013KT 01/M03 A3025 RMK A01 T00071031  RH  076%=      5-min Rain = 0
KPD4 192057Z 32014KT 01/M03 A3025 RMK A01 T00071029  RH  077%=      5-min Rain = 0
KPD4 192058Z 32013KT 01/M03 A3025 RMK A01 T00071030  RH  076%=      5-min Rain = 0
KPD4 192059Z 32012KT 01/M03 A3026 RMK A01 T00071029  RH  077%=      5-min Rain = 0
KPD4 192100Z 31013KT 01/M03 A3026 RMK A01 T00071029  RH  077%=      5-min Rain = 0
KPD4 192101Z 31011KT 01/M03 A3026 RMK A01 T00071029  RH  077%=      5-min Rain = 0
KPD4 192102Z 32011KT 01/M03 A3026 RMK A01 T00071028  RH  077%=      5-min Rain = 0
KPD4 192103Z 32012KT 01/M03 A3025 RMK A01 T00071030  RH  076%=      5-min Rain = 0
KPD4 192104Z 33010KT 01/M03 A3025 RMK A01 T00071029  RH  076%=      5-min Rain = 0
KPD4 192105Z 33011KT 01/M03 A3025 RMK A01 T00091027  RH  077%=      5-min Rain = 0
KPD4 192106Z 33010KT 01/M03 A3025 RMK A01 T00101028  RH  076%=      5-min Rain = 0
KPD4 192107Z 33011KT 01/M03 A3025 RMK A01 T00111026  RH  076%=      5-min Rain = 0
KPD4 192108Z 33012KT 01/M03 A3025 RMK A01 T00121027  RH  075%=      5-min Rain = 0
KPD4 192109Z 34009KT 01/M03 A3025 RMK A01 T00101030  RH  075%=      5-min Rain = 0
KPD4 192110Z 35010KT 01/M03 A3025 RMK A01 T00111025  RH  077%=      5-min Rain = 0
KPD4 192111Z 34010KT 01/M03 A3025 RMK A01 T00121027  RH  075%=      5-min Rain = 0
KPD4 192112Z 33008KT 01/M03 A3025 RMK A01 T00111029  RH  075%=      5-min Rain = 0
KPD4 192113Z 31010KT 01/M03 A3025 RMK A01 T00101026  RH  077%=      5-min Rain = 0
KPD4 192114Z 31012KT 01/M03 A3025 RMK A01 T00111028  RH  076%=      5-min Rain = 0
KPD4 192115Z 32011KT 01/M03 A3025 RMK A01 T00101028  RH  076%=      5-min Rain = 0
KPD4 192116Z 32011KT 01/M03 A3025 RMK A01 T00101027  RH  076%=      5-min Rain = 0
KPD4 192117Z 33011KT 01/M03 A3025 RMK A01 T00111026  RH  076%=      5-min Rain = 0
KPD4 192118Z 33010KT 01/M03 A3025 RMK A01 T00141025  RH  075%=      5-min Rain = 0
KPD4 192119Z 33010KT 02/M03 A3025 RMK A01 T00151026  RH  074%=      5-min Rain = 0
KPD4 192120Z 31011KT 02/M02 A3025 RMK A01 T00151024  RH  075%=      5-min Rain = 0
KPD4 192121Z 31010KT 02/M03 A3025 RMK A01 T00161026  RH  074%=      5-min Rain = 0
KPD4 192122Z 32011KT 02/M03 A3025 RMK A01 T00151028  RH  073%=      5-min Rain = 0
KPD4 192123Z 32011KT 01/M03 A3025 RMK A01 T00141026  RH  074%=      5-min Rain = 0
KPD4 192124Z 32010KT 01/M03 A3025 RMK A01 T00131027  RH  074%=      5-min Rain = 0
KPD4 192125Z 33009KT 01/M03 A3025 RMK A01 T00121027  RH  075%=      5-min Rain = 0
KPD4 192126Z 31011KT 01/M03 A3025 RMK A01 T00131026  RH  076%=      5-min Rain = 0
KPD4 192127Z 32010KT 01/M03 A3025 RMK A01 T00141026  RH  075%=      5-min Rain = 0
KPD4 192128Z 32009KT 01/M03 A3025 RMK A01 T00131028  RH  074%=      5-min Rain = 0
KPD4 192129Z 32009KT 01/M03 A3025 RMK A01 T00121028  RH  075%=      5-min Rain = 0
KPD4 192130Z 32009KT 01/M03 A3025 RMK A01 T00101029  RH  075%=      5-min Rain = 0
KPD4 192131Z 33009KT 01/M03 A3025 RMK A01 T00091029  RH  075%=      5-min Rain = 0
KPD4 192132Z 33008KT 01/M03 A3025 RMK A01 T00091030  RH  075%=      5-min Rain = 0
KPD4 192133Z 31007KT 01/M03 A3025 RMK A01 T00101029  RH  075%=      5-min Rain = 0
KPD4 192134Z 31010KT 01/M03 A3025 RMK A01 T00131025  RH  076%=      5-min Rain = 0
KPD4 192135Z 31009KT 01/M03 A3025 RMK A01 T00141026  RH  075%=      5-min Rain = 0
KPD4 192136Z 32007KT 01/M03 A3025 RMK A01 T00131028  RH  074%=      5-min Rain = 0
KPD4 192137Z 32008KT 01/M03 A3025 RMK A01 T00121028  RH  075%=      5-min Rain = 0
KPD4 192138Z 32007KT 01/M03 A3025 RMK A01 T00111028  RH  075%=      5-min Rain = 0
KPD4 192139Z 31009KT 01/M03 A3025 RMK A01 T00111027  RH  075%=      5-min Rain = 0
KPD4 192140Z 32010KT 01/M03 A3025 RMK A01 T00121025  RH  076%=      5-min Rain = 0
KPD4 192141Z 32009KT 02/M03 A3025 RMK A01 T00161025  RH  074%=      5-min Rain = 0
KPD4 192142Z 33008KT 02/M03 A3026 RMK A01 T00181025  RH  073%=      5-min Rain = 0
KPD4 192143Z 33007KT 02/M03 A3025 RMK A01 T00191027  RH  071%=      5-min Rain = 0
KPD4 192144Z 32006KT 02/M03 A3025 RMK A01 T00191027  RH  071%=      5-min Rain = 0
KPD4 192145Z 32009KT 02/M02 A3026 RMK A01 T00211022  RH  073%=      5-min Rain = 0
KPD4 192146Z 32011KT 02/M02 A3026 RMK A01 T00221023  RH  072%=      5-min Rain = 0
KPD4 192147Z 32011KT 02/M03 A3026 RMK A01 T00191028  RH  071%=      5-min Rain = 0
KPD4 192148Z 32010KT 02/M03 A3026 RMK A01 T00161031  RH  071%=      5-min Rain = 0
KPD4 192149Z 32009KT 02/M03 A3026 RMK A01 T00151030  RH  072%=      5-min Rain = 0
KPD4 192150Z 33008KT 01/M03 A3026 RMK A01 T00131030  RH  073%=      5-min Rain = 0
KPD4 192151Z 33007KT 01/M03 A3026 RMK A01 T00131029  RH  073%=      5-min Rain = 0
KPD4 192152Z 33007KT 01/M03 A3026 RMK A01 T00131028  RH  074%=      5-min Rain = 0
KPD4 192153Z 32005KT 01/M03 A3025 RMK A01 T00141028  RH  074%=      5-min Rain = 0
KPD4 192154Z 31005KT 02/M03 A3025 RMK A01 T00151028  RH  073%=      5-min Rain = 0
KPD4 192155Z 31006KT 02/M03 A3026 RMK A01 T00171025  RH  074%=      5-min Rain = 0
KPD4 192156Z 30009KT 02/M02 A3026 RMK A01 T00201024  RH  073%=      5-min Rain = 0
KPD4 192157Z 30008KT 02/M02 A3026 RMK A01 T00211024  RH  072%=      5-min Rain = 0
KPD4 192158Z 30008KT 02/M03 A3026 RMK A01 T00191027  RH  071%=      5-min Rain = 0
KPD4 192159Z 31008KT 02/M03 A3026 RMK A01 T00181025  RH  073%=      5-min Rain = 0
KPD4 192200Z 31009KT 02/M03 A3026 RMK A01 T00171026  RH  073%=      5-min Rain = 0
KPD4 192201Z 32010KT 02/M03 A3026 RMK A01 T00161025  RH  074%=      5-min Rain = 0
KPD4 192202Z 32008KT 02/M03 A3026 RMK A01 T00161027  RH  073%=      5-min Rain = 0
KPD4 192203Z 31008KT 02/M02 A3026 RMK A01 T00181024  RH  074%=      5-min Rain = 0
KPD4 192204Z 32010KT 02/M02 A3026 RMK A01 T00201024  RH  073%=      5-min Rain = 0
KPD4 192205Z 32009KT 02/M02 A3026 RMK A01 T00211024  RH  072%=      5-min Rain = 0
KPD4 192206Z 31008KT 02/M02 A3026 RMK A01 T00221022  RH  072%=      5-min Rain = 0
KPD4 192207Z 30010KT 03/M02 A3026 RMK A01 T00261018  RH  073%=      5-min Rain = 0
KPD4 192208Z 29010KT 03/M02 A3026 RMK A01 T00271021  RH  071%=      5-min Rain = 0
KPD4 192209Z 30009KT 03/M03 A3026 RMK A01 T00251025  RH  070%=      5-min Rain = 0
KPD4 192210Z 30007KT 02/M03 A3026 RMK A01 T00241025  RH  070%=      5-min Rain = 0
KPD4 192211Z 30011KT 03/M02 A3025 RMK A01 T00251021  RH  072%=      5-min Rain = 0
KPD4 192212Z 30011KT 03/M02 A3025 RMK A01 T00271020  RH  071%=      5-min Rain = 0
KPD4 192213Z 30010KT 03/M02 A3026 RMK A01 T00261023  RH  070%=      5-min Rain = 0
KPD4 192214Z 30008KT 03/M02 A3026 RMK A01 T00251023  RH  070%=      5-min Rain = 0
KPD4 192215Z 30011KT 03/M02 A3026 RMK A01 T00251022  RH  071%=      5-min Rain = 0
KPD4 192216Z 32010KT 03/M02 A3026 RMK A01 T00271021  RH  071%=      5-min Rain = 0
KPD4 192217Z 31011KT 03/M02 A3026 RMK A01 T00271022  RH  070%=      5-min Rain = 0
KPD4 192218Z 31010KT 03/M02 A3026 RMK A01 T00261024  RH  070%=      5-min Rain = 0
KPD4 192219Z 32008KT 03/M02 A3026 RMK A01 T00261021  RH  071%=      5-min Rain = 0
KPD4 192220Z 32011KT 03/M02 A3025 RMK A01 T00271022  RH  070%=      5-min Rain = 0
KPD4 192221Z 32010KT 03/M03 A3026 RMK A01 T00261025  RH  069%=      5-min Rain = 0
KPD4 192222Z 31008KT 02/M03 A3026 RMK A01 T00241026  RH  069%=      5-min Rain = 0
KPD4 192223Z 32006KT 02/M03 A3026 RMK A01 T00241025  RH  070%=      5-min Rain = 0
KPD4 192224Z 33008KT 02/M02 A3026 RMK A01 T00241023  RH  071%=      5-min Rain = 0
KPD4 192225Z 32010KT 03/M02 A3026 RMK A01 T00261023  RH  070%=      5-min Rain = 0
KPD4 192226Z 32011KT 03/M02 A3025 RMK A01 T00261024  RH  070%=      5-min Rain = 0
KPD4 192227Z 32011KT 03/M03 A3025 RMK A01 T00251025  RH  069%=      5-min Rain = 0
KPD4 192228Z 32009KT 02/M03 A3026 RMK A01 T00241026  RH  070%=      5-min Rain = 0
KPD4 192229Z 31010KT 02/M03 A3026 RMK A01 T00231026  RH  070%=      5-min Rain = 0
KPD4 192230Z 31008KT 02/M03 A3026 RMK A01 T00231026  RH  070%=      5-min Rain = 0
KPD4 192231Z 31008KT 02/M03 A3026 RMK A01 T00231025  RH  070%=      5-min Rain = 0
KPD4 192232Z 32009KT 02/M03 A3026 RMK A01 T00241025  RH  070%=      5-min Rain = 0
KPD4 192233Z 32008KT 02/M03 A3026 RMK A01 T00241025  RH  070%=      5-min Rain = 0
KPD4 192234Z 33008KT 02/M03 A3026 RMK A01 T00241025  RH  070%=      5-min Rain = 0
KPD4 192235Z 32008KT 02/M03 A3026 RMK A01 T00241025  RH  070%=      5-min Rain = 0
KPD4 192236Z 33008KT 02/M02 A3025 RMK A01 T00241024  RH  071%=      5-min Rain = 0
KPD4 192237Z 32006KT 02/M02 A3025 RMK A01 T00241024  RH  070%=      5-min Rain = 0
KPD4 192238Z 33007KT 02/M02 A3025 RMK A01 T00241024  RH  070%=      5-min Rain = 0
KPD4 192239Z 32008KT 02/M02 A3025 RMK A01 T00241024  RH  070%=      5-min Rain = 0
KPD4 192240Z 30007KT 03/M02 A3025 RMK A01 T00251023  RH  071%=      5-min Rain = 0
KPD4 192241Z 29008KT 03/M02 A3025 RMK A01 T00251023  RH  071%=      5-min Rain = 0
KPD4 192242Z 30007KT 03/M03 A3025 RMK A01 T00251025  RH  070%=      5-min Rain = 0
KPD4 192243Z 31007KT 02/M02 A3025 RMK A01 T00241024  RH  070%=      5-min Rain = 0
KPD4 192244Z 31007KT 02/M02 A3025 RMK A01 T00241024  RH  071%=      5-min Rain = 0
KPD4 192245Z 33009KT 02/M02 A3026 RMK A01 T00241024  RH  071%=      5-min Rain = 0
KPD4 192246Z 32008KT 02/M03 A3025 RMK A01 T00231026  RH  070%=      5-min Rain = 0
KPD4 192247Z 32008KT 02/M03 A3025 RMK A01 T00221026  RH  071%=      5-min Rain = 0
KPD4 192248Z 32008KT 02/M03 A3025 RMK A01 T00221026  RH  071%=      5-min Rain = 0
KPD4 192249Z 31008KT 02/M03 A3025 RMK A01 T00221026  RH  071%=      5-min Rain = 0
KPD4 192250Z 32006KT 02/M03 A3025 RMK A01 T00221025  RH  071%=      5-min Rain = 0
KPD4 192251Z 32007KT 02/M02 A3026 RMK A01 T00231023  RH  072%=      5-min Rain = 0
KPD4 192252Z 32007KT 02/M03 A3026 RMK A01 T00221025  RH  071%=      5-min Rain = 0
KPD4 192253Z 32007KT 02/M03 A3026 RMK A01 T00211025  RH  071%=      5-min Rain = 0
KPD4 192254Z 32007KT 02/M03 A3026 RMK A01 T00211025  RH  072%=      5-min Rain = 0
KPD4 192255Z 31008KT 02/M03 A3026 RMK A01 T00211025  RH  072%=      5-min Rain = 0
KPD4 192256Z 33007KT 02/M02 A3026 RMK A01 T00211024  RH  072%=      5-min Rain = 0
KPD4 192257Z 33006KT 02/M02 A3026 RMK A01 T00211023  RH  072%=      5-min Rain = 0
KPD4 192258Z 32007KT 02/M02 A3026 RMK A01 T00221023  RH  072%=      5-min Rain = 0
KPD4 192259Z 31007KT 02/M02 A3026 RMK A01 T00221024  RH  072%=      5-min Rain = 0
KPD4 192300Z 31007KT 02/M02 A3026 RMK A01 T00221024  RH  072%=      5-min Rain = 0
KPD4 192301Z 32007KT 02/M02 A3026 RMK A01 T00221024  RH  072%=      5-min Rain = 0
KPD4 192302Z 31006KT 02/M02 A3026 RMK A01 T00221024  RH  072%=      5-min Rain = 0
KPD4 192303Z 30006KT 02/M02 A3026 RMK A01 T00221024  RH  072%=      5-min Rain = 0
KPD4 192304Z 31006KT 02/M02 A3026 RMK A01 T00221024  RH  072%=      5-min Rain = 0
KPD4 192305Z 32006KT 02/M02 A3026 RMK A01 T00221024  RH  071%=      5-min Rain = 0
KPD4 192306Z 32007KT 02/M03 A3027 RMK A01 T00221025  RH  071%=      5-min Rain = 0
KPD4 192307Z 33006KT 02/M03 A3027 RMK A01 T00221026  RH  071%=      5-min Rain = 0
KPD4 192308Z 31006KT 02/M02 A3027 RMK A01 T00221024  RH  071%=      5-min Rain = 0
KPD4 192309Z 31006KT 02/M03 A3027 RMK A01 T00221025  RH  071%=      5-min Rain = 0
KPD4 192310Z 30006KT 02/M03 A3027 RMK A01 T00221025  RH  071%=      5-min Rain = 0
KPD4 192311Z 32006KT 02/M03 A3027 RMK A01 T00221025  RH  071%=      5-min Rain = 0
KPD4 192312Z 33006KT 02/M03 A3027 RMK A01 T00211025  RH  072%=      5-min Rain = 0
KPD4 192313Z 32005KT 02/M03 A3027 RMK A01 T00211026  RH  071%=      5-min Rain = 0
KPD4 192314Z 32005KT 02/M03 A3027 RMK A01 T00201026  RH  072%=      5-min Rain = 0
KPD4 192315Z 32006KT 02/M03 A3027 RMK A01 T00191025  RH  072%=      5-min Rain = 0
KPD4 192316Z 32006KT 02/M03 A3027 RMK A01 T00181026  RH  073%=      5-min Rain = 0
KPD4 192317Z 32005KT 02/M03 A3027 RMK A01 T00171026  RH  073%=      5-min Rain = 0
KPD4 192318Z 33005KT 02/M03 A3027 RMK A01 T00171026  RH  073%=      5-min Rain = 0
KPD4 192319Z 32005KT 02/M03 A3027 RMK A01 T00171026  RH  073%=      5-min Rain = 0
KPD4 192320Z 32005KT 02/M03 A3027 RMK A01 T00171026  RH  073%=      5-min Rain = 0
KPD4 192321Z 32004KT 02/M03 A3027 RMK A01 T00171026  RH  073%=      5-min Rain = 0
KPD4 192322Z 31003KT 02/M03 A3027 RMK A01 T00181026  RH  073%=      5-min Rain = 0
KPD4 192323Z 31004KT 02/M03 A3026 RMK A01 T00181026  RH  073%=      5-min Rain = 0
KPD4 192324Z 31004KT 02/M03 A3026 RMK A01 T00191026  RH  072%=      5-min Rain = 0
KPD4 192325Z 30003KT 02/M03 A3027 RMK A01 T00191026  RH  072%=      5-min Rain = 0
KPD4 192326Z 31004KT 02/M03 A3027 RMK A01 T00191025  RH  073%=      5-min Rain = 0
KPD4 192327Z 32005KT 02/M03 A3027 RMK A01 T00191025  RH  073%=      5-min Rain = 0
KPD4 192328Z 32005KT 02/M03 A3027 RMK A01 T00181026  RH  073%=      5-min Rain = 0
KPD4 192329Z 32005KT 02/M03 A3027 RMK A01 T00181025  RH  073%=      5-min Rain = 0
KPD4 192330Z 32005KT 02/M03 A3027 RMK A01 T00171026  RH  073%=      5-min Rain = 0
KPD4 192331Z 32005KT 02/M03 A3027 RMK A01 T00171025  RH  074%=      5-min Rain = 0
KPD4 192332Z 32005KT 02/M03 A3027 RMK A01 T00161026  RH  074%=      5-min Rain = 0
KPD4 192333Z 33005KT 02/M03 A3027 RMK A01 T00161026  RH  074%=      5-min Rain = 0
KPD4 192334Z 33005KT 02/M03 A3027 RMK A01 T00151026  RH  074%=      5-min Rain = 0
KPD4 192335Z 33005KT 01/M03 A3027 RMK A01 T00141026  RH  075%=      5-min Rain = 0
KPD4 192336Z 33005KT 01/M03 A3027 RMK A01 T00141026  RH  075%=      5-min Rain = 0
KPD4 192337Z 33006KT 01/M03 A3027 RMK A01 T00121027  RH  075%=      5-min Rain = 0
KPD4 192338Z 33006KT 01/M03 A3027 RMK A01 T00121027  RH  075%=      5-min Rain = 0
KPD4 192339Z 33006KT 01/M03 A3027 RMK A01 T00111027  RH  076%=      5-min Rain = 0
KPD4 192340Z 32006KT 01/M03 A3027 RMK A01 T00101027  RH  076%=      5-min Rain = 0
KPD4 192341Z 33005KT 01/M03 A3027 RMK A01 T00091028  RH  076%=      5-min Rain = 0
KPD4 192342Z 33005KT 01/M03 A3027 RMK A01 T00091028  RH  076%=      5-min Rain = 0
KPD4 192343Z 33005KT 01/M03 A3027 RMK A01 T00091028  RH  077%=      5-min Rain = 0
KPD4 192344Z 32005KT 01/M03 A3026 RMK A01 T00081028  RH  077%=      5-min Rain = 0
KPD4 192345Z 32005KT 01/M03 A3026 RMK A01 T00081028  RH  077%=      5-min Rain = 0
KPD4 192346Z 32005KT 01/M03 A3026 RMK A01 T00071028  RH  077%=      5-min Rain = 0
KPD4 192347Z 31005KT 01/M03 A3026 RMK A01 T00071028  RH  077%=      5-min Rain = 0
KPD4 192348Z 31005KT 01/M03 A3026 RMK A01 T00061029  RH  078%=      5-min Rain = 0
KPD4 192349Z 31005KT 01/M03 A3026 RMK A01 T00051029  RH  078%=      5-min Rain = 0
KPD4 192350Z 31005KT 00/M03 A3026 RMK A01 T00041029  RH  078%=      5-min Rain = 0
KPD4 192351Z 31005KT 00/M03 A3026 RMK A01 T00031030  RH  078%=      5-min Rain = 0
KPD4 192352Z 31004KT 00/M03 A3026 RMK A01 T00021030  RH  079%=      5-min Rain = 0
KPD4 192353Z 31005KT 00/M03 A3026 RMK A01 T00011030  RH  079%=      5-min Rain = 0
KPD4 192354Z 31005KT 00/M03 A3026 RMK A01 T00011030  RH  080%=      5-min Rain = 0
KPD4 192355Z 31004KT 00/03 A3026 RMK A01 T00-00-31  RH  080%=      5-min Rain = 0
KPD4 192356Z 31004KT M00/M03 A3026 RMK A01 T10011030  RH  081%=      5-min Rain = 0
KPD4 192357Z 31004KT M00/M03 A3026 RMK A01 T10021031  RH  081%=      5-min Rain = 0
KPD4 192358Z 30004KT M00/M03 A3026 RMK A01 T10021030  RH  081%=      5-min Rain = 0
KPD4 192359Z 30004KT M00/M03 A3026 RMK A01 T10021030  RH  082%=      5-min Rain = 0
KPD4 200000Z 30003KT M00/M03 A3026 RMK A01 T10031030  RH  082%=      5-min Rain = 0
KPD4 200001Z 30003KT M00/M03 A3026 RMK A01 T10031031  RH  082%=      5-min Rain = 0
KPD4 200002Z 30003KT M00/M03 A3026 RMK A01 T10041031  RH  082%=      5-min Rain = 0
KPD4 200003Z 29003KT M01/M03 A3026 RMK A01 T10051031  RH  083%=      5-min Rain = 0
KPD4 200004Z 29004KT M01/M03 A3026 RMK A01 T10051031  RH  083%=      5-min Rain = 0
KPD4 200005Z 29004KT M01/M03 A3026 RMK A01 T10051031  RH  082%=      5-min Rain = 0
KPD4 200006Z 28004KT M01/M03 A3026 RMK A01 T10061033  RH  082%=      5-min Rain = 0
KPD4 200007Z 28004KT M01/M03 A3026 RMK A01 T10071032  RH  083%=      5-min Rain = 0
KPD4 200008Z 28004KT M01/M03 A3026 RMK A01 T10071031  RH  084%=      5-min Rain = 0
KPD4 200009Z 28004KT M01/M03 A3026 RMK A01 T10051029  RH  084%=      5-min Rain = 0
KPD4 200010Z 28004KT M00/M03 A3026 RMK A01 T10041027  RH  084%=      5-min Rain = 0
KPD4 200011Z 28004KT M00/M03 A3026 RMK A01 T10031027  RH  084%=      5-min Rain = 0
KPD4 200012Z 29004KT M00/M03 A3026 RMK A01 T10031028  RH  083%=      5-min Rain = 0
KPD4 200013Z 29004KT M00/M03 A3026 RMK A01 T10031028  RH  083%=      5-min Rain = 0
KPD4 200014Z 29004KT M00/M03 A3026 RMK A01 T10031027  RH  084%=      5-min Rain = 0
KPD4 200015Z 30003KT M00/M03 A3026 RMK A01 T10031026  RH  084%=      5-min Rain = 0
KPD4 200016Z 30003KT M00/M03 A3026 RMK A01 T10021026  RH  084%=      5-min Rain = 0
KPD4 200017Z 31003KT M00/M03 A3026 RMK A01 T10011025  RH  084%=      5-min Rain = 0
KPD4 200018Z 32003KT M00/M03 A3025 RMK A01 T10011026  RH  083%=      5-min Rain = 0
KPD4 200019Z 32003KT M00/M03 A3026 RMK A01 T10011027  RH  083%=      5-min Rain = 0
KPD4 200020Z 33004KT M00/M03 A3026 RMK A01 T10011027  RH  083%=      5-min Rain = 0
KPD4 200021Z 34004KT M00/M03 A3026 RMK A01 T10021027  RH  083%=      5-min Rain = 0
KPD4 200022Z 34004KT M00/M03 A3026 RMK A01 T10021028  RH  083%=      5-min Rain = 0
KPD4 200023Z 34004KT M00/M03 A3026 RMK A01 T10031028  RH  083%=      5-min Rain = 0
KPD4 200024Z 34004KT M00/M03 A3026 RMK A01 T10031028  RH  083%=      5-min Rain = 0
KPD4 200025Z 34003KT M00/M03 A3026 RMK A01 T10041029  RH  083%=      5-min Rain = 0
KPD4 200026Z 34003KT M00/M03 A3025 RMK A01 T10041029  RH  084%=      5-min Rain = 0
KPD4 200027Z 34003KT M01/M03 A3025 RMK A01 T10051028  RH  084%=      5-min Rain = 0
KPD4 200028Z 34003KT M01/M03 A3025 RMK A01 T10051028  RH  084%=      5-min Rain = 0
KPD4 200029Z 34003KT M01/M03 A3025 RMK A01 T10051027  RH  085%=      5-min Rain = 0
KPD4 200030Z 34003KT M00/M03 A3025 RMK A01 T10041026  RH  085%=      5-min Rain = 0
KPD4 200031Z 34003KT M00/M03 A3025 RMK A01 T10031025  RH  085%=      5-min Rain = 0
KPD4 200032Z 34002KT M00/M02 A3025 RMK A01 T10011024  RH  085%=      5-min Rain = 0
KPD4 200033Z 34002KT 00/02 A3025 RMK A01 T00000-23  RH  084%=      5-min Rain = 0
KPD4 200034Z 33002KT 00/M02 A3025 RMK A01 T00011023  RH  084%=      5-min Rain = 0
KPD4 200035Z 33002KT 00/M02 A3025 RMK A01 T00021024  RH  083%=      5-min Rain = 0
KPD4 200036Z 33001KT 00/M02 A3025 RMK A01 T00021024  RH  082%=      5-min Rain = 0
KPD4 200037Z 33001KT 00/M03 A3025 RMK A01 T00031025  RH  082%=      5-min Rain = 0
KPD4 200038Z 33001KT 00/M03 A3025 RMK A01 T00021025  RH  082%=      5-min Rain = 0
KPD4 200039Z 33001KT 00/M03 A3025 RMK A01 T00031025  RH  082%=      5-min Rain = 0
KPD4 200040Z 33000KT 00/M03 A3025 RMK A01 T00031025  RH  082%=      5-min Rain = 0
KPD4 200041Z 33000KT 00/M03 A3025 RMK A01 T00031025  RH  082%=      5-min Rain = 0
KPD4 200042Z 33000KT 00/M03 A3025 RMK A01 T00021025  RH  082%=      5-min Rain = 0
KPD4 200043Z 33001KT 00/M03 A3025 RMK A01 T00021026  RH  081%=      5-min Rain = 0
KPD4 200044Z 33001KT 00/M03 A3024 RMK A01 T00031026  RH  081%=      5-min Rain = 0
KPD4 200045Z 33001KT 00/M03 A3024 RMK A01 T00021026  RH  081%=      5-min Rain = 0
KPD4 200046Z 33001KT 00/M03 A3024 RMK A01 T00031026  RH  081%=      5-min Rain = 0
KPD4 200047Z 33001KT 00/M03 A3024 RMK A01 T00031027  RH  081%=      5-min Rain = 0
KPD4 200048Z 33000KT 00/M03 A3024 RMK A01 T00031026  RH  081%=      5-min Rain = 0
KPD4 200049Z 00000KT 00/M03 A3024 RMK A01 T00031026  RH  081%=      5-min Rain = 0
KPD4 200050Z 00000KT 00/M03 A3024 RMK A01 T00031026  RH  081%=      5-min Rain = 0
KPD4 200051Z 00000KT 00/M03 A3024 RMK A01 T00021026  RH  081%=      5-min Rain = 0
KPD4 200052Z 00000KT 00/M03 A3024 RMK A01 T00021026  RH  082%=      5-min Rain = 0
KPD4 200053Z 00000KT 00/M03 A3024 RMK A01 T00021026  RH  082%=      5-min Rain = 0
KPD4 200054Z 00000KT 00/M03 A3024 RMK A01 T00021026  RH  082%=      5-min Rain = 0
KPD4 200055Z 00000KT 00/M03 A3024 RMK A01 T00011026  RH  082%=      5-min Rain = 0
KPD4 200056Z 00000KT 00/M03 A3025 RMK A01 T00011026  RH  082%=      5-min Rain = 0
KPD4 200057Z 00000KT 00/M03 A3025 RMK A01 T00011027  RH  082%=      5-min Rain = 0
KPD4 200058Z 00000KT 00/03 A3025 RMK A01 T00000-27  RH  082%=      5-min Rain = 0
KPD4 200059Z 00000KT 00/03 A3025 RMK A01 T00000-27  RH  082%=      5-min Rain = 0
KPD4 200100Z 33000KT 00/M03 A3025 RMK A01 T00011026  RH  082%=      5-min Rain = 0
KPD4 200101Z 07001KT 00/M03 A3025 RMK A01 T00021027  RH  081%=      5-min Rain = 0
KPD4 200102Z 10001KT M00/M03 A3025 RMK A01 T10011032  RH  080%=      5-min Rain = 0
KPD4 200103Z 10001KT M00/M03 A3025 RMK A01 T10041033  RH  081%=      5-min Rain = 0
KPD4 200104Z 10000KT M01/M03 A3025 RMK A01 T10061032  RH  082%=      5-min Rain = 0
KPD4 200105Z 10000KT M01/M03 A3025 RMK A01 T10061030  RH  084%=      5-min Rain = 0
KPD4 200106Z 00000KT M01/M03 A3025 RMK A01 T10061029  RH  084%=      5-min Rain = 0
KPD4 200107Z 10000KT M01/M03 A3024 RMK A01 T10051028  RH  084%=      5-min Rain = 0
KPD4 200108Z 10000KT M01/M03 A3024 RMK A01 T10051029  RH  084%=      5-min Rain = 0
KPD4 200109Z 10001KT M01/M03 A3024 RMK A01 T10061031  RH  083%=      5-min Rain = 0
KPD4 200110Z 10001KT M01/M03 A3024 RMK A01 T10071032  RH  083%=      5-min Rain = 0
KPD4 200111Z 12002KT M01/M03 A3024 RMK A01 T10081032  RH  084%=      5-min Rain = 0
KPD4 200112Z 13002KT M01/M03 A3024 RMK A01 T10101033  RH  084%=      5-min Rain = 0
KPD4 200113Z 12001KT M01/M04 A3024 RMK A01 T10121035  RH  084%=      5-min Rain = 0
KPD4 200114Z 12002KT M01/M03 A3024 RMK A01 T10121034  RH  085%=      5-min Rain = 0
KPD4 200115Z 12001KT M01/M03 A3024 RMK A01 T10131033  RH  086%=      5-min Rain = 0
KPD4 200116Z 12001KT M01/M03 A3024 RMK A01 T10131033  RH  086%=      5-min Rain = 0
KPD4 200117Z 12001KT M01/M03 A3024 RMK A01 T10141033  RH  087%=      5-min Rain = 0
KPD4 200118Z 12001KT M01/M03 A3024 RMK A01 T10141033  RH  087%=      5-min Rain = 0
KPD4 200119Z 12001KT M01/M03 A3024 RMK A01 T10141034  RH  086%=      5-min Rain = 0
KPD4 200120Z 12001KT M02/M03 A3024 RMK A01 T10151034  RH  087%=      5-min Rain = 0
KPD4 200121Z 12001KT M02/M03 A3024 RMK A01 T10151032  RH  088%=      5-min Rain = 0
KPD4 200122Z 12001KT M01/M03 A3024 RMK A01 T10121029  RH  089%=      5-min Rain = 0
KPD4 200123Z 11001KT M01/M03 A3024 RMK A01 T10101027  RH  088%=      5-min Rain = 0
KPD4 200124Z 11001KT M01/M03 A3024 RMK A01 T10081027  RH  087%=      5-min Rain = 0
KPD4 200125Z 11001KT M01/M03 A3024 RMK A01 T10071028  RH  086%=      5-min Rain = 0
KPD4 200126Z 11001KT M01/M03 A3024 RMK A01 T10071028  RH  086%=      5-min Rain = 0
KPD4 200127Z 09001KT M01/M03 A3024 RMK A01 T10071028  RH  085%=      5-min Rain = 0
KPD4 200128Z 09000KT M01/M03 A3024 RMK A01 T10071029  RH  085%=      5-min Rain = 0
KPD4 200129Z 00000KT M01/M03 A3024 RMK A01 T10071029  RH  085%=      5-min Rain = 0
KPD4 200130Z 00000KT M01/M03 A3024 RMK A01 T10071029  RH  085%=      5-min Rain = 0
KPD4 200131Z 00000KT M01/M03 A3025 RMK A01 T10061028  RH  085%=      5-min Rain = 0
KPD4 200132Z 00000KT M01/M03 A3025 RMK A01 T10061029  RH  085%=      5-min Rain = 0
KPD4 200133Z 00000KT M01/M03 A3025 RMK A01 T10061029  RH  084%=      5-min Rain = 0
KPD4 200134Z 00000KT M01/M03 A3025 RMK A01 T10061029  RH  084%=      5-min Rain = 0
KPD4 200135Z 09000KT M01/M03 A3025 RMK A01 T10061029  RH  084%=      5-min Rain = 0
KPD4 200136Z 09001KT M01/M03 A3025 RMK A01 T10061029  RH  084%=      5-min Rain = 0
KPD4 200137Z 09000KT M01/M03 A3025 RMK A01 T10061029  RH  084%=      5-min Rain = 0
KPD4 200138Z 12000KT M01/M03 A3025 RMK A01 T10051029  RH  084%=      5-min Rain = 0
KPD4 200139Z 17002KT M01/M03 A3025 RMK A01 T10051028  RH  084%=      5-min Rain = 0
KPD4 200140Z 19003KT M01/M03 A3025 RMK A01 T10051029  RH  084%=      5-min Rain = 0
KPD4 200141Z 19003KT M01/M03 A3025 RMK A01 T10061030  RH  084%=      5-min Rain = 0
KPD4 200142Z 20003KT M01/M03 A3025 RMK A01 T10071031  RH  084%=      5-min Rain = 0
KPD4 200143Z 20003KT M01/M03 A3025 RMK A01 T10091032  RH  084%=      5-min Rain = 0
KPD4 200144Z 21002KT M01/M03 A3025 RMK A01 T10101032  RH  085%=      5-min Rain = 0
KPD4 200145Z 21001KT M01/M03 A3025 RMK A01 T10111032  RH  086%=      5-min Rain = 0
KPD4 200146Z 21000KT M01/M03 A3025 RMK A01 T10111032  RH  086%=      5-min Rain = 0
KPD4 200147Z 00000KT M01/M03 A3025 RMK A01 T10111031  RH  086%=      5-min Rain = 0
KPD4 200148Z 00000KT M01/M03 A3025 RMK A01 T10111031  RH  086%=      5-min Rain = 0
KPD4 200149Z 27000KT M01/M03 A3025 RMK A01 T10101030  RH  086%=      5-min Rain = 0
KPD4 200150Z 27001KT M01/M03 A3025 RMK A01 T10101030  RH  086%=      5-min Rain = 0
KPD4 200151Z 27001KT M01/M03 A3025 RMK A01 T10091029  RH  086%=      5-min Rain = 0
KPD4 200152Z 27000KT M01/M03 A3025 RMK A01 T10081029  RH  086%=      5-min Rain = 0
KPD4 200153Z 27000KT M01/M03 A3025 RMK A01 T10081029  RH  085%=      5-min Rain = 0
KPD4 200154Z 00000KT M01/M03 A3025 RMK A01 T10081030  RH  085%=      5-min Rain = 0
KPD4 200155Z 00000KT M01/M03 A3025 RMK A01 T10081029  RH  085%=      5-min Rain = 0
KPD4 200156Z 00000KT M01/M03 A3025 RMK A01 T10081029  RH  085%=      5-min Rain = 0
KPD4 200157Z 00000KT M01/M03 A3025 RMK A01 T10071030  RH  085%=      5-min Rain = 0
KPD4 200158Z 00000KT M01/M03 A3025 RMK A01 T10081030  RH  085%=      5-min Rain = 0
KPD4 200159Z 00000KT M01/M03 A3026 RMK A01 T10081030  RH  085%=      5-min Rain = 0
KPD4 200200Z 00000KT M01/M03 A3026 RMK A01 T10081031  RH  085%=      5-min Rain = 0
KPD4 200201Z 27000KT M01/M03 A3026 RMK A01 T10081030  RH  085%=      5-min Rain = 0
KPD4 200202Z 17002KT M01/M03 A3026 RMK A01 T10091030  RH  085%=      5-min Rain = 0
KPD4 200203Z 18003KT M01/M03 A3026 RMK A01 T10091031  RH  085%=      5-min Rain = 0
KPD4 200204Z 19003KT M01/M03 A3026 RMK A01 T10081031  RH  085%=      5-min Rain = 0
KPD4 200205Z 19002KT M01/M03 A3026 RMK A01 T10091031  RH  085%=      5-min Rain = 0
KPD4 200206Z 20002KT M01/M03 A3026 RMK A01 T10101033  RH  085%=      5-min Rain = 0
KPD4 200207Z 20001KT M01/M03 A3026 RMK A01 T10111034  RH  085%=      5-min Rain = 0
KPD4 200208Z 20001KT M01/M03 A3026 RMK A01 T10131034  RH  085%=      5-min Rain = 0
KPD4 200209Z 19001KT M01/M03 A3025 RMK A01 T10141033  RH  086%=      5-min Rain = 0
KPD4 200210Z 17001KT M01/M03 A3025 RMK A01 T10131031  RH  088%=      5-min Rain = 0
KPD4 200211Z 13002KT M01/M03 A3025 RMK A01 T10121030  RH  088%=      5-min Rain = 0
KPD4 200212Z 12002KT M01/M03 A3025 RMK A01 T10131034  RH  085%=      5-min Rain = 0
KPD4 200213Z 13002KT M02/M04 A3025 RMK A01 T10161038  RH  085%=      5-min Rain = 0
KPD4 200214Z 16002KT M02/M04 A3025 RMK A01 T10171037  RH  087%=      5-min Rain = 0
KPD4 200215Z 17002KT M02/M04 A3025 RMK A01 T10181036  RH  088%=      5-min Rain = 0
KPD4 200216Z 19002KT M02/M04 A3026 RMK A01 T10181035  RH  088%=      5-min Rain = 0
KPD4 200217Z 19002KT M02/M04 A3026 RMK A01 T10181035  RH  089%=      5-min Rain = 0
KPD4 200218Z 19002KT M02/M04 A3026 RMK A01 T10181035  RH  089%=      5-min Rain = 0
KPD4 200219Z 19002KT M02/M04 A3026 RMK A01 T10181035  RH  089%=      5-min Rain = 0
KPD4 200220Z 19002KT M02/M03 A3025 RMK A01 T10181034  RH  089%=      5-min Rain = 0
KPD4 200221Z 19001KT M02/M03 A3025 RMK A01 T10181034  RH  089%=      5-min Rain = 0
KPD4 200222Z 19000KT M02/M03 A3025 RMK A01 T10181033  RH  089%=      5-min Rain = 0
KPD4 200223Z 19000KT M02/M03 A3025 RMK A01 T10171032  RH  089%=      5-min Rain = 0
KPD4 200224Z 11000KT M02/M03 A3025 RMK A01 T10171032  RH  089%=      5-min Rain = 0
KPD4 200225Z 11003KT M02/M03 A3025 RMK A01 T10161030  RH  090%=      5-min Rain = 0
KPD4 200226Z 11002KT M01/M03 A3025 RMK A01 T10141030  RH  089%=      5-min Rain = 0
KPD4 200227Z 12002KT M01/M03 A3025 RMK A01 T10141033  RH  087%=      5-min Rain = 0
KPD4 200228Z 13002KT M02/M04 A3025 RMK A01 T10161035  RH  087%=      5-min Rain = 0
KPD4 200229Z 16002KT M02/M03 A3025 RMK A01 T10161034  RH  088%=      5-min Rain = 0
KPD4 200230Z 19003KT M02/M03 A3025 RMK A01 T10161034  RH  088%=      5-min Rain = 0
KPD4 200231Z 20003KT M02/M04 A3025 RMK A01 T10191038  RH  087%=      5-min Rain = 0
KPD4 200232Z 20003KT M02/M04 A3025 RMK A01 T10201037  RH  088%=      5-min Rain = 0
KPD4 200233Z 19003KT M02/M03 A3025 RMK A01 T10191034  RH  089%=      5-min Rain = 0
KPD4 200234Z 19003KT M02/M03 A3025 RMK A01 T10191034  RH  089%=      5-min Rain = 0
KPD4 200235Z 19003KT M02/M04 A3025 RMK A01 T10191035  RH  089%=      5-min Rain = 0
KPD4 200236Z 19003KT M02/M04 A3025 RMK A01 T10191035  RH  089%=      5-min Rain = 0
KPD4 200237Z 20003KT M02/M04 A3025 RMK A01 T10191035  RH  089%=      5-min Rain = 0
KPD4 200238Z 21004KT M02/M04 A3025 RMK A01 T10201036  RH  089%=      5-min Rain = 0
KPD4 200239Z 21004KT M02/M04 A3025 RMK A01 T10221037  RH  089%=      5-min Rain = 0
KPD4 200240Z 21004KT M02/M04 A3025 RMK A01 T10231038  RH  089%=      5-min Rain = 0
KPD4 200241Z 21004KT M02/M04 A3025 RMK A01 T10241039  RH  089%=      5-min Rain = 0
KPD4 200242Z 21004KT M03/M04 A3025 RMK A01 T10261041  RH  089%=      5-min Rain = 0
KPD4 200243Z 21003KT M03/M04 A3025 RMK A01 T10261040  RH  090%=      5-min Rain = 0
KPD4 200244Z 22003KT M03/M04 A3026 RMK A01 T10261039  RH  091%=      5-min Rain = 0
KPD4 200245Z 22003KT M03/M04 A3026 RMK A01 T10261038  RH  091%=      5-min Rain = 0
KPD4 200246Z 22002KT M03/M04 A3025 RMK A01 T10261037  RH  092%=      5-min Rain = 0
KPD4 200247Z 22002KT M03/M04 A3025 RMK A01 T10251036  RH  092%=      5-min Rain = 0
KPD4 200248Z 21002KT M02/M04 A3025 RMK A01 T10241036  RH  092%=      5-min Rain = 0
KPD4 200249Z 20002KT M02/M04 A3025 RMK A01 T10231035  RH  092%=      5-min Rain = 0
KPD4 200250Z 19002KT M02/M03 A3025 RMK A01 T10221034  RH  092%=      5-min Rain = 0
KPD4 200251Z 19001KT M02/M03 A3025 RMK A01 T10211032  RH  092%=      5-min Rain = 0
KPD4 200252Z 19001KT M02/M03 A3025 RMK A01 T10201031  RH  092%=      5-min Rain = 0
KPD4 200253Z 18002KT M02/M03 A3025 RMK A01 T10181031  RH  091%=      5-min Rain = 0
KPD4 200254Z 17002KT M02/M03 A3025 RMK A01 T10181032  RH  090%=      5-min Rain = 0
KPD4 200255Z 17002KT M02/M03 A3025 RMK A01 T10181034  RH  089%=      5-min Rain = 0
KPD4 200256Z 17003KT M02/M04 A3025 RMK A01 T10191035  RH  089%=      5-min Rain = 0
KPD4 200257Z 17003KT M02/M03 A3025 RMK A01 T10191034  RH  090%=      5-min Rain = 0
KPD4 200258Z 18003KT M02/M03 A3025 RMK A01 T10171031  RH  090%=      5-min Rain = 0
KPD4 200259Z 19004KT M02/M03 A3025 RMK A01 T10161031  RH  090%=      5-min Rain = 0
KPD4 200300Z 19004KT M02/M03 A3025 RMK A01 T10151032  RH  089%=      5-min Rain = 0
KPD4 200301Z 19005KT M02/M03 A3025 RMK A01 T10171034  RH  088%=      5-min Rain = 0
KPD4 200302Z 18005KT M02/M04 A3025 RMK A01 T10181035  RH  089%=      5-min Rain = 0
KPD4 200303Z 18004KT M02/M04 A3025 RMK A01 T10201037  RH  089%=      5-min Rain = 0
KPD4 200304Z 18005KT M02/M04 A3025 RMK A01 T10221038  RH  089%=      5-min Rain = 0
KPD4 200305Z 19005KT M02/M04 A3025 RMK A01 T10231039  RH  089%=      5-min Rain = 0
KPD4 200306Z 19006KT M02/M04 A3025 RMK A01 T10241039  RH  089%=      5-min Rain = 0
KPD4 200307Z 19005KT M03/M04 A3024 RMK A01 T10251041  RH  089%=      5-min Rain = 0
KPD4 200308Z 19004KT M03/M04 A3024 RMK A01 T10271042  RH  089%=      5-min Rain = 0
KPD4 200309Z 18004KT M03/M04 A3024 RMK A01 T10281042  RH  090%=      5-min Rain = 0
KPD4 200310Z 18004KT M03/M04 A3024 RMK A01 T10291043  RH  090%=      5-min Rain = 0
KPD4 200311Z 18004KT M03/M04 A3024 RMK A01 T10311044  RH  090%=      5-min Rain = 0
KPD4 200312Z 17004KT M03/M05 A3023 RMK A01 T10321045  RH  091%=      5-min Rain = 0
KPD4 200313Z 17004KT M03/M05 A3024 RMK A01 T10341048  RH  090%=      5-min Rain = 0
KPD4 200314Z 17004KT M04/M05 A3024 RMK A01 T10351049  RH  091%=      5-min Rain = 0
KPD4 200315Z 19005KT M04/M05 A3024 RMK A01 T10371049  RH  091%=      5-min Rain = 0
KPD4 200316Z 19005KT M04/M05 A3024 RMK A01 T10371048  RH  092%=      5-min Rain = 0
KPD4 200317Z 19005KT M04/M05 A3024 RMK A01 T10381049  RH  093%=      5-min Rain = 0
KPD4 200318Z 19005KT M04/M05 A3024 RMK A01 T10391049  RH  093%=      5-min Rain = 0
KPD4 200319Z 19004KT M04/M05 A3024 RMK A01 T10391048  RH  093%=      5-min Rain = 0
KPD4 200320Z 19004KT M04/M05 A3024 RMK A01 T10381047  RH  094%=      5-min Rain = 0
KPD4 200321Z 18004KT M04/M05 A3024 RMK A01 T10381046  RH  094%=      5-min Rain = 0
KPD4 200322Z 17005KT M04/M05 A3024 RMK A01 T10381046  RH  094%=      5-min Rain = 0
KPD4 200323Z 17004KT M04/M05 A3024 RMK A01 T10371045  RH  094%=      5-min Rain = 0
KPD4 200324Z 16003KT M04/M05 A3024 RMK A01 T10381048  RH  093%=      5-min Rain = 0
KPD4 200325Z 16004KT M04/M05 A3024 RMK A01 T10401050  RH  093%=      5-min Rain = 0
KPD4 200326Z 15004KT M04/M05 A3024 RMK A01 T10401048  RH  094%=      5-min Rain = 0
KPD4 200327Z 14003KT M04/M05 A3024 RMK A01 T10391046  RH  095%=      5-min Rain = 0
KPD4 200328Z 14003KT M04/M05 A3023 RMK A01 T10381045  RH  095%=      5-min Rain = 0
KPD4 200329Z 14003KT M04/M05 A3023 RMK A01 T10381045  RH  095%=      5-min Rain = 0
KPD4 200330Z 15003KT M04/M05 A3023 RMK A01 T10381045  RH  095%=      5-min Rain = 0
KPD4 200331Z 14003KT M04/M04 A3023 RMK A01 T10371044  RH  095%=      5-min Rain = 0
KPD4 200332Z 13003KT M04/M04 A3023 RMK A01 T10361043  RH  095%=      5-min Rain = 0
KPD4 200333Z 12003KT M04/M04 A3024 RMK A01 T10361043  RH  095%=      5-min Rain = 0
KPD4 200334Z 13003KT M04/M04 A3024 RMK A01 T10361043  RH  095%=      5-min Rain = 0
KPD4 200335Z 13003KT M04/M04 A3023 RMK A01 T10361043  RH  095%=      5-min Rain = 0
KPD4 200336Z 13003KT M04/M04 A3023 RMK A01 T10361043  RH  094%=      5-min Rain = 0
KPD4 200337Z 14003KT M04/M04 A3023 RMK A01 T10361043  RH  094%=      5-min Rain = 0
KPD4 200338Z 15003KT M04/M04 A3024 RMK A01 T10361043  RH  094%=      5-min Rain = 0
KPD4 200339Z 15003KT M04/M04 A3023 RMK A01 T10361043  RH  094%=      5-min Rain = 0
KPD4 200340Z 15003KT M04/M04 A3023 RMK A01 T10361043  RH  094%=      5-min Rain = 0
KPD4 200341Z 14002KT M04/M04 A3023 RMK A01 T10361043  RH  095%=      5-min Rain = 0
KPD4 200342Z 13002KT M04/M04 A3023 RMK A01 T10351042  RH  095%=      5-min Rain = 0
KPD4 200343Z 13003KT M03/M04 A3023 RMK A01 T10341040  RH  095%=      5-min Rain = 0
KPD4 200344Z 12003KT M03/M04 A3023 RMK A01 T10321039  RH  095%=      5-min Rain = 0
KPD4 200345Z 12003KT M03/M04 A3023 RMK A01 T10321040  RH  094%=      5-min Rain = 0
KPD4 200346Z 12003KT M03/M04 A3023 RMK A01 T10311040  RH  094%=      5-min Rain = 0
KPD4 200347Z 12003KT M03/M04 A3023 RMK A01 T10311040  RH  094%=      5-min Rain = 0
KPD4 200348Z 13003KT M03/M04 A3023 RMK A01 T10311040  RH  094%=      5-min Rain = 0
KPD4 200349Z 13003KT M03/M04 A3023 RMK A01 T10311040  RH  094%=      5-min Rain = 0
KPD4 200350Z 13003KT M03/M04 A3023 RMK A01 T10311040  RH  094%=      5-min Rain = 0
KPD4 200351Z 12004KT M03/M04 A3023 RMK A01 T10311040  RH  094%=      5-min Rain = 0
KPD4 200352Z 12004KT M03/M04 A3023 RMK A01 T10301038  RH  094%=      5-min Rain = 0
KPD4 200353Z 13005KT M03/M04 A3023 RMK A01 T10291038  RH  094%=      5-min Rain = 0
KPD4 200354Z 14005KT M03/M04 A3022 RMK A01 T10281038  RH  093%=      5-min Rain = 0
KPD4 200355Z 14005KT M03/M04 A3022 RMK A01 T10281040  RH  092%=      5-min Rain = 0
KPD4 200356Z 15005KT M03/M04 A3023 RMK A01 T10291041  RH  091%=      5-min Rain = 0
KPD4 200357Z 16005KT M03/M04 A3023 RMK A01 T10301042  RH  091%=      5-min Rain = 0
KPD4 200358Z 16005KT M03/M04 A3023 RMK A01 T10311043  RH  091%=      5-min Rain = 0
KPD4 200359Z 16005KT M03/M04 A3022 RMK A01 T10321043  RH  092%=      5-min Rain = 0
KPD4 200400Z 16005KT M03/M04 A3022 RMK A01 T10321043  RH  092%=      5-min Rain = 0
KPD4 200401Z 16004KT M03/M04 A3022 RMK A01 T10321043  RH  092%=      5-min Rain = 0
KPD4 200402Z 16004KT M03/M04 A3023 RMK A01 T10321043  RH  092%=      5-min Rain = 0
KPD4 200403Z 16004KT M03/M04 A3023 RMK A01 T10311042  RH  092%=      5-min Rain = 0
KPD4 200404Z 17004KT M03/M04 A3023 RMK A01 T10311042  RH  092%=      5-min Rain = 0
KPD4 200405Z 18004KT M03/M05 A3024 RMK A01 T10321045  RH  091%=      5-min Rain = 0
KPD4 200406Z 19005KT M03/M05 A3024 RMK A01 T10341046  RH  091%=      5-min Rain = 0
KPD4 200407Z 19004KT M04/M05 A3024 RMK A01 T10351046  RH  092%=      5-min Rain = 0
KPD4 200408Z 19004KT M04/M05 A3024 RMK A01 T10351046  RH  092%=      5-min Rain = 0
KPD4 200409Z 19005KT M04/M05 A3023 RMK A01 T10361047  RH  092%=      5-min Rain = 0
KPD4 200410Z 19005KT M04/M05 A3023 RMK A01 T10371048  RH  092%=      5-min Rain = 0
KPD4 200411Z 20005KT M04/M05 A3023 RMK A01 T10381050  RH  092%=      5-min Rain = 0
KPD4 200412Z 20005KT M04/M05 A3023 RMK A01 T10401051  RH  092%=      5-min Rain = 0
KPD4 200413Z 21006KT M04/M05 A3024 RMK A01 T10411053  RH  092%=      5-min Rain = 0
KPD4 200414Z 20006KT M04/M05 A3023 RMK A01 T10431053  RH  092%=      5-min Rain = 0
KPD4 200415Z 19006KT M04/M05 A3023 RMK A01 T10431053  RH  093%=      5-min Rain = 0
KPD4 200416Z 18007KT M04/M05 A3022 RMK A01 T10431053  RH  093%=      5-min Rain = 0
KPD4 200417Z 17007KT M04/M05 A3022 RMK A01 T10431051  RH  094%=      5-min Rain = 0
KPD4 200418Z 17007KT M04/M05 A3022 RMK A01 T10411048  RH  095%=      5-min Rain = 0
KPD4 200419Z 16006KT M04/M05 A3022 RMK A01 T10401047  RH  095%=      5-min Rain = 0
KPD4 200420Z 17006KT M04/M05 A3023 RMK A01 T10391047  RH  094%=      5-min Rain = 0
KPD4 200421Z 18005KT M04/M05 A3023 RMK A01 T10381046  RH  094%=      5-min Rain = 0
KPD4 200422Z 18006KT M04/M05 A3023 RMK A01 T10381046  RH  094%=      5-min Rain = 0
KPD4 200423Z 19006KT M04/M05 A3023 RMK A01 T10371045  RH  094%=      5-min Rain = 0
KPD4 200424Z 19007KT M04/M05 A3024 RMK A01 T10371046  RH  093%=      5-min Rain = 0
KPD4 200425Z 18006KT M04/M05 A3024 RMK A01 T10381048  RH  093%=      5-min Rain = 0
KPD4 200426Z 18005KT M04/M05 A3024 RMK A01 T10391049  RH  093%=      5-min Rain = 0
KPD4 200427Z 18004KT M04/M05 A3024 RMK A01 T10391048  RH  093%=      5-min Rain = 0
KPD4 200428Z 16004KT M04/M05 A3024 RMK A01 T10381047  RH  094%=      5-min Rain = 0
KPD4 200429Z 16004KT M04/M04 A3024 RMK A01 T10371044  RH  094%=      5-min Rain = 0
KPD4 200430Z 17004KT M04/M04 A3024 RMK A01 T10351042  RH  095%=      5-min Rain = 0
KPD4 200431Z 18005KT M03/M04 A3024 RMK A01 T10341043  RH  094%=      5-min Rain = 0
KPD4 200432Z 19005KT M03/M04 A3024 RMK A01 T10341044  RH  093%=      5-min Rain = 0
KPD4 200433Z 20005KT M04/M05 A3025 RMK A01 T10361048  RH  092%=      5-min Rain = 0
KPD4 200434Z 20005KT M04/M05 A3025 RMK A01 T10381051  RH  091%=      5-min Rain = 0
KPD4 200435Z 19005KT M04/M05 A3025 RMK A01 T10401051  RH  092%=      5-min Rain = 0
KPD4 200436Z 18005KT M04/M05 A3025 RMK A01 T10401051  RH  092%=      5-min Rain = 0
KPD4 200437Z 19004KT M04/M05 A3025 RMK A01 T10411051  RH  093%=      5-min Rain = 0
KPD4 200438Z 19005KT M04/M05 A3026 RMK A01 T10411050  RH  093%=      5-min Rain = 0
KPD4 200439Z 19005KT M04/M05 A3026 RMK A01 T10411049  RH  094%=      5-min Rain = 0
KPD4 200440Z 19005KT M04/M05 A3025 RMK A01 T10401048  RH  094%=      5-min Rain = 0
KPD4 200441Z 19004KT M04/M05 A3025 RMK A01 T10401048  RH  094%=      5-min Rain = 0
KPD4 200442Z 18004KT M04/M05 A3025 RMK A01 T10391048  RH  094%=      5-min Rain = 0
KPD4 200443Z 18004KT M04/M05 A3025 RMK A01 T10391047  RH  094%=      5-min Rain = 0
KPD4 200444Z 18005KT M04/M05 A3025 RMK A01 T10381046  RH  094%=      5-min Rain = 0
KPD4 200445Z 18005KT M04/M05 A3025 RMK A01 T10371045  RH  094%=      5-min Rain = 0
KPD4 200446Z 18005KT M04/M05 A3025 RMK A01 T10361045  RH  094%=      5-min Rain = 0
KPD4 200447Z 19005KT M04/M05 A3025 RMK A01 T10371047  RH  093%=      5-min Rain = 0
KPD4 200448Z 19006KT M04/M05 A3025 RMK A01 T10391050  RH  092%=      5-min Rain = 0
KPD4 200449Z 19005KT M04/M05 A3025 RMK A01 T10391050  RH  093%=      5-min Rain = 0
KPD4 200450Z 19005KT M04/M05 A3025 RMK A01 T10401049  RH  093%=      5-min Rain = 0
KPD4 200451Z 19004KT M04/M05 A3025 RMK A01 T10391048  RH  094%=      5-min Rain = 0
KPD4 200452Z 18005KT M04/M05 A3024 RMK A01 T10391047  RH  094%=      5-min Rain = 0
KPD4 200453Z 18005KT M04/M05 A3024 RMK A01 T10371045  RH  094%=      5-min Rain = 0
KPD4 200454Z 18006KT M04/M04 A3024 RMK A01 T10361044  RH  094%=      5-min Rain = 0
KPD4 200455Z 18006KT M04/M05 A3023 RMK A01 T10361046  RH  093%=      5-min Rain = 0
KPD4 200456Z 17005KT M04/M05 A3023 RMK A01 T10371046  RH  093%=      5-min Rain = 0
KPD4 200457Z 16005KT M04/M05 A3023 RMK A01 T10371046  RH  093%=      5-min Rain = 0
KPD4 200458Z 16005KT M04/M05 A3024 RMK A01 T10371046  RH  094%=      5-min Rain = 0
KPD4 200459Z 17005KT M04/M05 A3024 RMK A01 T10361045  RH  094%=      5-min Rain = 0
KPD4 200500Z 18006KT M04/M04 A3024 RMK A01 T10351044  RH  093%=      5-min Rain = 0
KPD4 200501Z 18005KT M04/M05 A3024 RMK A01 T10361046  RH  093%=      5-min Rain = 0
KPD4 200502Z 18005KT M04/M05 A3024 RMK A01 T10371047  RH  093%=      5-min Rain = 0
KPD4 200503Z 19004KT M04/M05 A3024 RMK A01 T10371047  RH  093%=      5-min Rain = 0
KPD4 200504Z 20004KT M04/M05 A3024 RMK A01 T10381049  RH  092%=      5-min Rain = 0
KPD4 200505Z 20004KT M04/M05 A3024 RMK A01 T10401051  RH  092%=      5-min Rain = 0
KPD4 200506Z 20004KT M04/M05 A3024 RMK A01 T10421053  RH  092%=      5-min Rain = 0
KPD4 200507Z 20005KT M04/M05 A3024 RMK A01 T10421051  RH  093%=      5-min Rain = 0
KPD4 200508Z 20005KT M04/M05 A3024 RMK A01 T10411049  RH  094%=      5-min Rain = 0
KPD4 200509Z 20005KT M04/M05 A3024 RMK A01 T10411049  RH  094%=      5-min Rain = 0
KPD4 200510Z 20005KT M04/M05 A3024 RMK A01 T10411049  RH  094%=      5-min Rain = 0
KPD4 200511Z 20006KT M04/M05 A3024 RMK A01 T10411050  RH  093%=      5-min Rain = 0
KPD4 200512Z 20006KT M04/M05 A3024 RMK A01 T10421051  RH  093%=      5-min Rain = 0
KPD4 200513Z 20006KT M04/M05 A3024 RMK A01 T10431053  RH  093%=      5-min Rain = 0
KPD4 200514Z 20006KT M04/M05 A3024 RMK A01 T10431053  RH  093%=      5-min Rain = 0
KPD4 200515Z 20006KT M04/M05 A3024 RMK A01 T10431052  RH  094%=      5-min Rain = 0
KPD4 200516Z 20006KT M04/M05 A3024 RMK A01 T10431052  RH  094%=      5-min Rain = 0
KPD4 200517Z 20007KT M04/M05 A3024 RMK A01 T10431051  RH  094%=      5-min Rain = 0
KPD4 200518Z 20007KT M04/M05 A3025 RMK A01 T10431052  RH  094%=      5-min Rain = 0
KPD4 200519Z 20007KT M04/M05 A3025 RMK A01 T10431051  RH  094%=      5-min Rain = 0
KPD4 200520Z 20006KT M04/M05 A3024 RMK A01 T10421051  RH  094%=      5-min Rain = 0
KPD4 200521Z 20006KT M04/M05 A3024 RMK A01 T10421051  RH  093%=      5-min Rain = 0
KPD4 200522Z 20006KT M04/M05 A3024 RMK A01 T10431052  RH  093%=      5-min Rain = 0
KPD4 200523Z 20006KT M04/M05 A3024 RMK A01 T10431052  RH  093%=      5-min Rain = 0
KPD4 200524Z 20005KT M04/M05 A3024 RMK A01 T10431052  RH  093%=      5-min Rain = 0
KPD4 200525Z 20006KT M04/M05 A3024 RMK A01 T10431052  RH  094%=      5-min Rain = 0
KPD4 200526Z 20006KT M04/M05 A3024 RMK A01 T10421050  RH  094%=      5-min Rain = 0
KPD4 200527Z 20006KT M04/M05 A3024 RMK A01 T10421050  RH  094%=      5-min Rain = 0
KPD4 200528Z 20006KT M04/M05 A3024 RMK A01 T10411049  RH  094%=      5-min Rain = 0
KPD4 200529Z 20006KT M04/M05 A3024 RMK A01 T10411049  RH  094%=      5-min Rain = 0
KPD4 200530Z 20006KT M04/M05 A3024 RMK A01 T10411050  RH  093%=      5-min Rain = 0
KPD4 200531Z 20007KT M04/M05 A3024 RMK A01 T10401050  RH  093%=      5-min Rain = 0
KPD4 200532Z 20007KT M04/M05 A3024 RMK A01 T10411050  RH  093%=      5-min Rain = 0
KPD4 200533Z 20007KT M04/M05 A3025 RMK A01 T10411050  RH  093%=      5-min Rain = 0
KPD4 200534Z 21007KT M04/M05 A3025 RMK A01 T10411052  RH  093%=      5-min Rain = 0
KPD4 200535Z 21006KT M04/M05 A3025 RMK A01 T10421052  RH  093%=      5-min Rain = 0
KPD4 200536Z 20006KT M04/M05 A3025 RMK A01 T10421052  RH  093%=      5-min Rain = 0
KPD4 200537Z 20006KT M04/M05 A3025 RMK A01 T10421052  RH  093%=      5-min Rain = 0
KPD4 200538Z 20006KT M04/M05 A3025 RMK A01 T10411050  RH  093%=      5-min Rain = 0
KPD4 200539Z 20005KT M04/M05 A3025 RMK A01 T10411050  RH  094%=      5-min Rain = 0
KPD4 200540Z 20006KT M04/M05 A3025 RMK A01 T10411049  RH  094%=      5-min Rain = 0
KPD4 200541Z 20005KT M04/M05 A3025 RMK A01 T10401049  RH  094%=      5-min Rain = 0
KPD4 200542Z 20005KT M04/M05 A3025 RMK A01 T10391048  RH  094%=      5-min Rain = 0
KPD4 200543Z 20006KT M04/M05 A3025 RMK A01 T10401049  RH  093%=      5-min Rain = 0
KPD4 200544Z 21006KT M04/M05 A3026 RMK A01 T10401050  RH  093%=      5-min Rain = 0
KPD4 200545Z 21006KT M04/M05 A3026 RMK A01 T10401051  RH  093%=      5-min Rain = 0
KPD4 200546Z 21006KT M04/M05 A3026 RMK A01 T10411051  RH  092%=      5-min Rain = 0
KPD4 200547Z 21006KT M04/M05 A3026 RMK A01 T10411051  RH  093%=      5-min Rain = 0
KPD4 200548Z 21006KT M04/M05 A3026 RMK A01 T10411050  RH  093%=      5-min Rain = 0
KPD4 200549Z 22006KT M04/M05 A3026 RMK A01 T10401050  RH  093%=      5-min Rain = 0
KPD4 200550Z 22006KT M04/M05 A3026 RMK A01 T10401049  RH  093%=      5-min Rain = 0
KPD4 200551Z 21005KT M04/M05 A3026 RMK A01 T10401049  RH  093%=      5-min Rain = 0
KPD4 200552Z 21005KT M04/M05 A3026 RMK A01 T10401049  RH  093%=      5-min Rain = 0
KPD4 200553Z 21004KT M04/M05 A3026 RMK A01 T10391048  RH  093%=      5-min Rain = 0
KPD4 200554Z 21004KT M04/M05 A3026 RMK A01 T10391049  RH  093%=      5-min Rain = 0
KPD4 200555Z 21005KT M04/M05 A3026 RMK A01 T10391049  RH  093%=      5-min Rain = 0
KPD4 200556Z 21005KT M04/M05 A3026 RMK A01 T10391049  RH  093%=      5-min Rain = 0
KPD4 200557Z 20005KT M04/M05 A3026 RMK A01 T10391048  RH  093%=      5-min Rain = 0
KPD4 200558Z 20005KT M04/M05 A3026 RMK A01 T10381047  RH  094%=      5-min Rain = 0
KPD4 200559Z 20005KT M04/M05 A3026 RMK A01 T10381047  RH  093%=      5-min Rain = 0

Page generated in 0.1826 seconds.